Wetterdaten: Samstag, 29.12.2018
Datum Zeit Temp. Aussen Temp. o. S. +5cm Feuchte Auss Luftdruck Regen Sonnenschein Regendauer Solar Windben Empfang
29.12.2018 00:00 2,8 C 1,7 C 1,7 C 92 % 1030,3 hPa 0,0 l/m 0 min 0 min 0 W/m 0,0 km/h (0 Bft) 97,87 %
29.12.2018 00:02 2,7 C 1,7 C 1,7 C 92 % 1030,3 hPa 0,0 l/m 0 min 0 min 0 W/m 3,2 km/h (1 Bft) 97,50 %
29.12.2018 00:04 2,7 C 1,7 C 1,7 C 92 % 1030,3 hPa 0,0 l/m 0 min 0 min 0 W/m 6,4 km/h (2 Bft) 97,83 %
29.12.2018 00:08 2,7 C 1,7 C 1,7 C 93 % 1030,3 hPa 0,0 l/m 0 min 0 min 0 W/m 6,4 km/h (2 Bft) 96,81 %
29.12.2018 00:10 2,7 C 1,7 C 1,7 C 93 % 1030,2 hPa 0,0 l/m 0 min 0 min 0 W/m 0,0 km/h (0 Bft) 95,74 %
29.12.2018 00:12 2,7 C 1,7 C 1,7 C 93 % 1030,2 hPa 0,0 l/m 0 min 0 min 0 W/m 3,2 km/h (1 Bft) 97,87 %
29.12.2018 00:14 2,7 C 1,7 C 1,7 C 93 % 1030,2 hPa 0,0 l/m 0 min 0 min 0 W/m 6,4 km/h (2 Bft) 100,00 %
29.12.2018 00:16 2,7 C 1,7 C 1,7 C 93 % 1030,2 hPa 0,0 l/m 0 min 0 min 0 W/m 3,2 km/h (1 Bft) 97,83 %
29.12.2018 00:18 2,6 C 1,7 C 1,7 C 93 % 1030,1 hPa 0,0 l/m 0 min 0 min 0 W/m 3,2 km/h (1 Bft) 97,87 %
29.12.2018 00:20 2,6 C 2,2 C 1,7 C 93 % 1030,1 hPa 0,0 l/m 0 min 0 min 0 W/m 0,0 km/h (0 Bft) 97,87 %
29.12.2018 00:22 2,6 C 2,2 C 1,7 C 93 % 1030,1 hPa 0,0 l/m 0 min 0 min 0 W/m 0,0 km/h (0 Bft) 100,00 %
29.12.2018 00:24 2,6 C 2,2 C 1,7 C 93 % 1030,2 hPa 0,0 l/m 0 min 0 min 0 W/m 3,2 km/h (1 Bft) 100,00 %
29.12.2018 00:26 2,6 C 2,2 C 1,7 C 93 % 1030,1 hPa 0,0 l/m 0 min 0 min 0 W/m 3,2 km/h (1 Bft) 100,00 %
29.12.2018 00:28 2,6 C 2,2 C 1,7 C 93 % 1030,1 hPa 0,0 l/m 0 min 0 min 0 W/m 3,2 km/h (1 Bft) 100,00 %
29.12.2018 00:30 2,6 C 2,2 C 1,7 C 93 % 1030,1 hPa 0,0 l/m 0 min 0 min 0 W/m 0,0 km/h (0 Bft) 100,00 %
29.12.2018 00:32 2,6 C 2,2 C 1,7 C 93 % 1030,2 hPa 0,0 l/m 0 min 0 min 0 W/m 0,0 km/h (0 Bft) 97,87 %
29.12.2018 00:34 2,6 C 2,2 C 1,7 C 93 % 1030,2 hPa 0,0 l/m 0 min 0 min 0 W/m 0,0 km/h (0 Bft) 100,00 %
29.12.2018 00:36 2,6 C 2,2 C 1,7 C 93 % 1030,2 hPa 0,0 l/m 0 min 0 min 0 W/m 0,0 km/h (0 Bft) 100,00 %
29.12.2018 00:38 2,6 C 2,2 C 1,7 C 94 % 1030,3 hPa 0,0 l/m 0 min 0 min 0 W/m 0,0 km/h (0 Bft) 100,00 %
29.12.2018 00:40 2,6 C 2,2 C 1,7 C 94 % 1030,3 hPa 0,0 l/m 0 min 0 min 0 W/m 0,0 km/h (0 Bft) 100,00 %
29.12.2018 00:42 2,7 C 2,2 C 1,7 C 94 % 1030,3 hPa 0,0 l/m 0 min 0 min 0 W/m 0,0 km/h (0 Bft) 100,00 %
29.12.2018 00:44 2,7 C 2,2 C 1,7 C 94 % 1030,3 hPa 0,0 l/m 0 min 0 min 0 W/m 0,0 km/h (0 Bft) 100,00 %
29.12.2018 00:46 2,6 C 2,2 C 1,7 C 94 % 1030,3 hPa 0,0 l/m 0 min 0 min 0 W/m 0,0 km/h (0 Bft) 100,00 %
29.12.2018 00:48 2,7 C 2,2 C 1,7 C 94 % 1030,2 hPa 0,0 l/m 0 min 0 min 0 W/m 0,0 km/h (0 Bft) 100,00 %
29.12.2018 00:50 2,7 C 2,2 C 1,7 C 94 % 1030,2 hPa 0,0 l/m 0 min 0 min 0 W/m 0,0 km/h (0 Bft) 100,00 %
29.12.2018 00:52 2,7 C 2,2 C 1,7 C 94 % 1030,2 hPa 0,0 l/m 0 min 0 min 0 W/m 0,0 km/h (0 Bft) 100,00 %
29.12.2018 00:54 2,7 C 2,2 C 1,7 C 94 % 1030,1 hPa 0,0 l/m 0 min 0 min 0 W/m 0,0 km/h (0 Bft) 100,00 %
29.12.2018 00:56 2,7 C 2,2 C 1,7 C 94 % 1030,0 hPa 0,0 l/m 0 min 0 min 0 W/m 3,2 km/h (1 Bft) 100,00 %
29.12.2018 00:58 2,7 C 2,2 C 1,7 C 94 % 1030,0 hPa 0,0 l/m 0 min 0 min 0 W/m 0,0 km/h (0 Bft) 100,00 %
29.12.2018 01:00 2,7 C 2,2 C 1,7 C 94 % 1030,0 hPa 0,0 l/m 0 min 0 min 0 W/m 0,0 km/h (0 Bft) 100,00 %
29.12.2018 01:02 2,7 C 2,2 C 1,7 C 94 % 1030,1 hPa 0,0 l/m 0 min 0 min 0 W/m 0,0 km/h (0 Bft) 97,83 %
29.12.2018 01:04 2,7 C 2,2 C 1,7 C 94 % 1030,1 hPa 0,0 l/m 0 min 0 min 0 W/m 0,0 km/h (0 Bft) 97,87 %
29.12.2018 01:06 2,7 C 2,2 C 1,7 C 94 % 1030,1 hPa 0,0 l/m 0 min 0 min 0 W/m 3,2 km/h (1 Bft) 95,74 %
29.12.2018 01:08 2,7 C 2,2 C 1,7 C 94 % 1030,1 hPa 0,0 l/m 0 min 0 min 0 W/m 0,0 km/h (0 Bft) 97,87 %
29.12.2018 01:10 2,7 C 2,2 C 1,7 C 94 % 1030,1 hPa 0,0 l/m 0 min 0 min 0 W/m 0,0 km/h (0 Bft) 97,87 %
29.12.2018 01:12 2,7 C 2,2 C 1,7 C 94 % 1030,2 hPa 0,0 l/m 0 min 0 min 0 W/m 0,0 km/h (0 Bft) 97,87 %
29.12.2018 01:14 2,7 C 2,2 C 1,7 C 94 % 1030,2 hPa 0,0 l/m 0 min 0 min 0 W/m 0,0 km/h (0 Bft) 97,83 %
29.12.2018 01:16 2,7 C 2,2 C 1,7 C 94 % 1030,1 hPa 0,0 l/m 0 min 0 min 0 W/m 0,0 km/h (0 Bft) 97,87 %
29.12.2018 01:18 2,7 C 2,2 C 1,7 C 94 % 1030,1 hPa 0,0 l/m 0 min 0 min 0 W/m 0,0 km/h (0 Bft) 97,87 %
29.12.2018 01:20 2,7 C 2,2 C 1,7 C 94 % 1030,1 hPa 0,0 l/m 0 min 0 min 0 W/m 0,0 km/h (0 Bft) 97,87 %
29.12.2018 01:22 2,7 C 2,2 C 1,7 C 94 % 1030,2 hPa 0,0 l/m 0 min 0 min 0 W/m 0,0 km/h (0 Bft) 97,87 %
29.12.2018 01:24 2,7 C 2,2 C 1,7 C 94 % 1030,2 hPa 0,0 l/m 0 min 0 min 0 W/m 0,0 km/h (0 Bft) 97,83 %
29.12.2018 01:26 2,7 C 2,2 C 1,7 C 94 % 1030,2 hPa 0,0 l/m 0 min 0 min 0 W/m 0,0 km/h (0 Bft) 97,87 %
29.12.2018 01:28 2,7 C 2,2 C 1,7 C 94 % 1030,2 hPa 0,0 l/m 0 min 0 min 0 W/m 0,0 km/h (0 Bft) 97,87 %
29.12.2018 01:30 2,7 C 2,2 C 1,7 C 94 % 1030,2 hPa 0,0 l/m 0 min 0 min 0 W/m 0,0 km/h (0 Bft) 95,74 %
29.12.2018 01:32 2,7 C 2,2 C 1,7 C 94 % 1030,2 hPa 0,0 l/m 0 min 0 min 0 W/m 0,0 km/h (0 Bft) 95,74 %
29.12.2018 01:34 2,7 C 2,2 C 1,7 C 94 % 1030,2 hPa 0,0 l/m 0 min 0 min 0 W/m 3,2 km/h (1 Bft) 95,74 %
29.12.2018 01:36 2,7 C 2,2 C 1,7 C 94 % 1030,2 hPa 0,0 l/m 0 min 0 min 0 W/m 0,0 km/h (0 Bft) 93,48 %
29.12.2018 01:38 2,7 C 2,2 C 1,7 C 94 % 1030,1 hPa 0,0 l/m 0 min 0 min 0 W/m 0,0 km/h (0 Bft) 93,62 %
29.12.2018 01:40 2,7 C 2,2 C 1,7 C 94 % 1030,1 hPa 0,0 l/m 0 min 0 min 0 W/m 3,2 km/h (1 Bft) 93,62 %
29.12.2018 01:42 2,7 C 2,2 C 1,7 C 94 % 1030,2 hPa 0,0 l/m 0 min 0 min 0 W/m 0,0 km/h (0 Bft) 95,74 %
29.12.2018 01:44 2,7 C 2,2 C 1,7 C 94 % 1030,3 hPa 0,0 l/m 0 min 0 min 0 W/m 0,0 km/h (0 Bft) 87,23 %
29.12.2018 01:46 2,7 C 2,2 C 1,7 C 94 % 1030,2 hPa 0,0 l/m 0 min 0 min 0 W/m 0,0 km/h (0 Bft) 89,36 %
29.12.2018 01:48 2,7 C 2,2 C 1,7 C 94 % 1030,2 hPa 0,0 l/m 0 min 0 min 0 W/m 0,0 km/h (0 Bft) 84,78 %
29.12.2018 01:50 2,7 C 2,2 C 1,7 C 94 % 1030,4 hPa 0,0 l/m 0 min 0 min 0 W/m 0,0 km/h (0 Bft) 76,60 %
29.12.2018 01:52 2,7 C 2,2 C 1,7 C 94 % 1030,3 hPa 0,0 l/m 0 min 0 min 0 W/m 0,0 km/h (0 Bft) 74,47 %
29.12.2018 01:54 2,7 C 2,2 C 1,7 C 94 % 1030,4 hPa 0,0 l/m 0 min 0 min 0 W/m 0,0 km/h (0 Bft) 63,83 %
29.12.2018 01:56 2,7 C 2,2 C 1,7 C 94 % 1030,3 hPa 0,0 l/m 0 min 0 min 0 W/m 0,0 km/h (0 Bft) 76,60 %
29.12.2018 01:58 2,7 C 2,2 C 1,7 C 94 % 1030,3 hPa 0,0 l/m 0 min 0 min 0 W/m 0,0 km/h (0 Bft) 80,85 %
29.12.2018 02:00 2,7 C 2,2 C 1,7 C 94 % 1030,2 hPa 0,0 l/m 0 min 0 min 0 W/m 0,0 km/h (0 Bft) 93,48 %
29.12.2018 02:02 2,7 C 2,2 C 1,7 C 94 % 1030,2 hPa 0,0 l/m 0 min 0 min 0 W/m 0,0 km/h (0 Bft) 91,11 %
29.12.2018 02:04 2,7 C 2,2 C 1,7 C 94 % 1030,1 hPa 0,0 l/m 0 min 0 min 0 W/m 0,0 km/h (0 Bft) 95,74 %
29.12.2018 02:06 2,7 C 2,2 C 1,7 C 94 % 1030,1 hPa 0,0 l/m 0 min 0 min 0 W/m 0,0 km/h (0 Bft) 95,74 %
29.12.2018 02:08 2,7 C 2,2 C 1,7 C 94 % 1030,1 hPa 0,0 l/m 0 min 0 min 0 W/m 0,0 km/h (0 Bft) 93,62 %
29.12.2018 02:10 2,7 C 2,2 C 1,7 C 94 % 1030,1 hPa 0,0 l/m 0 min 0 min 0 W/m 0,0 km/h (0 Bft) 93,62 %
29.12.2018 02:12 2,7 C 2,2 C 1,7 C 94 % 1030,2 hPa 0,0 l/m 0 min 0 min 0 W/m 0,0 km/h (0 Bft) 95,74 %
29.12.2018 02:14 2,7 C 2,2 C 1,7 C 94 % 1030,1 hPa 0,0 l/m 0 min 0 min 0 W/m 9,7 km/h (2 Bft) 91,49 %
29.12.2018 02:16 2,8 C 2,8 C 2,2 C 95 % 1030,0 hPa 0,0 l/m 0 min 0 min 0 W/m 0,0 km/h (0 Bft) 89,13 %
29.12.2018 02:18 2,8 C 2,8 C 2,2 C 95 % 1030,1 hPa 0,0 l/m 0 min 0 min 0 W/m 3,2 km/h (1 Bft) 89,36 %
29.12.2018 02:20 2,8 C 2,8 C 2,2 C 95 % 1030,2 hPa 0,0 l/m 0 min 0 min 0 W/m 0,0 km/h (0 Bft) 85,11 %
29.12.2018 02:22 2,8 C 2,8 C 2,2 C 95 % 1030,2 hPa 0,0 l/m 0 min 0 min 0 W/m 3,2 km/h (1 Bft) 91,49 %
29.12.2018 02:24 2,8 C 2,8 C 2,2 C 95 % 1030,1 hPa 0,0 l/m 0 min 0 min 0 W/m 3,2 km/h (1 Bft) 87,23 %
29.12.2018 02:26 2,8 C 2,8 C 2,2 C 95 % 1030,1 hPa 0,0 l/m 0 min 0 min 0 W/m 0,0 km/h (0 Bft) 72,34 %
29.12.2018 02:28 2,8 C 2,8 C 2,2 C 95 % 1030,0 hPa 0,0 l/m 0 min 0 min 0 W/m 3,2 km/h (1 Bft) 78,26 %
29.12.2018 02:30 2,8 C 2,8 C 2,2 C 95 % 1030,1 hPa 0,0 l/m 0 min 0 min 0 W/m 3,2 km/h (1 Bft) 72,34 %
29.12.2018 02:32 2,9 C 2,8 C 2,2 C 95 % 1030,1 hPa 0,0 l/m 0 min 0 min 0 W/m 3,2 km/h (1 Bft) 93,62 %
29.12.2018 02:34 2,9 C 2,8 C 2,2 C 95 % 1030,1 hPa 0,0 l/m 0 min 0 min 0 W/m 0,0 km/h (0 Bft) 95,74 %
29.12.2018 02:36 2,9 C 2,8 C 2,2 C 95 % 1030,1 hPa 0,0 l/m 0 min 0 min 0 W/m 3,2 km/h (1 Bft) 95,74 %
29.12.2018 02:38 2,9 C 2,8 C 2,2 C 95 % 1030,2 hPa 0,0 l/m 0 min 0 min 0 W/m 3,2 km/h (1 Bft) 93,62 %
29.12.2018 02:40 2,9 C 2,8 C 2,2 C 95 % 1030,2 hPa 0,0 l/m 0 min 0 min 0 W/m 6,4 km/h (2 Bft) 86,96 %
29.12.2018 02:42 2,9 C 2,8 C 2,2 C 95 % 1030,3 hPa 0,0 l/m 0 min 0 min 0 W/m 0,0 km/h (0 Bft) 85,11 %
29.12.2018 02:44 2,9 C 2,8 C 2,2 C 95 % 1030,3 hPa 0,0 l/m 0 min 0 min 0 W/m 0,0 km/h (0 Bft) 85,11 %
29.12.2018 02:46 2,9 C 2,8 C 2,2 C 95 % 1030,2 hPa 0,0 l/m 0 min 0 min 0 W/m 3,2 km/h (1 Bft) 78,72 %
29.12.2018 02:48 2,9 C 2,8 C 2,2 C 95 % 1030,2 hPa 0,0 l/m 0 min 0 min 0 W/m 0,0 km/h (0 Bft) 85,11 %
29.12.2018 02:50 2,9 C 2,8 C 2,2 C 95 % 1030,2 hPa 0,0 l/m 0 min 0 min 0 W/m 0,0 km/h (0 Bft) 85,11 %
29.12.2018 02:52 2,9 C 2,8 C 2,2 C 95 % 1030,1 hPa 0,0 l/m 0 min 0 min 0 W/m 0,0 km/h (0 Bft) 80,43 %
29.12.2018 02:54 2,9 C 2,8 C 2,2 C 95 % 1030,1 hPa 0,0 l/m 0 min 0 min 0 W/m 0,0 km/h (0 Bft) 87,23 %
29.12.2018 02:56 3,0 C 2,8 C 2,2 C 95 % 1030,1 hPa 0,0 l/m 0 min 0 min 0 W/m 0,0 km/h (0 Bft) 87,23 %
29.12.2018 02:58 3,0 C 2,8 C 2,2 C 95 % 1030,1 hPa 0,0 l/m 0 min 0 min 0 W/m 0,0 km/h (0 Bft) 87,23 %
29.12.2018 03:00 3,0 C 2,8 C 2,2 C 95 % 1030,1 hPa 0,0 l/m 0 min 0 min 0 W/m 0,0 km/h (0 Bft) 82,98 %
29.12.2018 03:02 3,0 C 2,8 C 2,2 C 95 % 1030,1 hPa 0,0 l/m 0 min 0 min 0 W/m 0,0 km/h (0 Bft) 89,36 %
29.12.2018 03:04 3,0 C 2,8 C 2,2 C 95 % 1030,2 hPa 0,0 l/m 0 min 0 min 0 W/m 0,0 km/h (0 Bft) 89,13 %
29.12.2018 03:06 3,0 C 2,8 C 2,2 C 95 % 1030,2 hPa 0,0 l/m 0 min 0 min 0 W/m 0,0 km/h (0 Bft) 100,00 %
29.12.2018 03:08 3,1 C 2,8 C 2,2 C 95 % 1030,1 hPa 0,0 l/m 0 min 0 min 0 W/m 0,0 km/h (0 Bft) 100,00 %
29.12.2018 03:10 3,1 C 2,8 C 2,2 C 95 % 1030,3 hPa 0,0 l/m 0 min 0 min 0 W/m 0,0 km/h (0 Bft) 100,00 %
29.12.2018 03:12 3,1 C 2,8 C 2,2 C 95 % 1030,2 hPa 0,0 l/m 0 min 0 min 0 W/m 0,0 km/h (0 Bft) 100,00 %
29.12.2018 03:14 3,1 C 2,8 C 2,2 C 95 % 1030,3 hPa 0,0 l/m 0 min 0 min 0 W/m 3,2 km/h (1 Bft) 97,83 %
29.12.2018 03:16 3,1 C 2,8 C 2,2 C 95 % 1030,3 hPa 0,0 l/m 0 min 0 min 0 W/m 0,0 km/h (0 Bft) 100,00 %
29.12.2018 03:18 3,1 C 2,8 C 2,2 C 95 % 1030,2 hPa 0,0 l/m 0 min 0 min 0 W/m 0,0 km/h (0 Bft) 100,00 %
29.12.2018 03:20 3,1 C 2,8 C 2,2 C 95 % 1030,2 hPa 0,0 l/m 0 min 0 min 0 W/m 0,0 km/h (0 Bft) 97,87 %
29.12.2018 03:22 3,1 C 2,8 C 2,2 C 95 % 1030,2 hPa 0,0 l/m 0 min 0 min 0 W/m 0,0 km/h (0 Bft) 100,00 %
29.12.2018 03:24 3,1 C 2,8 C 2,2 C 95 % 1030,3 hPa 0,0 l/m 0 min 0 min 0 W/m 0,0 km/h (0 Bft) 100,00 %
29.12.2018 03:26 3,1 C 2,8 C 2,2 C 95 % 1030,4 hPa 0,0 l/m 0 min 0 min 0 W/m 0,0 km/h (0 Bft) 100,00 %
29.12.2018 03:28 3,2 C 2,8 C 2,2 C 95 % 1030,3 hPa 0,0 l/m 0 min 0 min 0 W/m 0,0 km/h (0 Bft) 100,00 %
29.12.2018 03:30 3,2 C 2,8 C 2,2 C 95 % 1030,3 hPa 0,0 l/m 0 min 0 min 0 W/m 0,0 km/h (0 Bft) 100,00 %
29.12.2018 03:32 3,2 C 2,8 C 2,2 C 95 % 1030,3 hPa 0,0 l/m 0 min 0 min 0 W/m 0,0 km/h (0 Bft) 100,00 %
29.12.2018 03:34 3,2 C 2,8 C 2,2 C 95 % 1030,3 hPa 0,0 l/m 0 min 0 min 0 W/m 0,0 km/h (0 Bft) 100,00 %
29.12.2018 03:36 3,2 C 2,8 C 2,2 C 95 % 1030,3 hPa 0,0 l/m 0 min 0 min 0 W/m 0,0 km/h (0 Bft) 97,87 %
29.12.2018 03:38 3,2 C 2,8 C 2,2 C 95 % 1030,3 hPa 0,0 l/m 0 min 0 min 0 W/m 0,0 km/h (0 Bft) 97,83 %
29.12.2018 03:40 3,2 C 2,8 C 2,2 C 95 % 1030,4 hPa 0,0 l/m 0 min 0 min 0 W/m 0,0 km/h (0 Bft) 100,00 %
29.12.2018 03:42 3,2 C 2,8 C 2,2 C 95 % 1030,4 hPa 0,0 l/m 0 min 0 min 0 W/m 0,0 km/h (0 Bft) 100,00 %
29.12.2018 03:44 3,2 C 2,8 C 2,2 C 95 % 1030,4 hPa 0,0 l/m 0 min 0 min 0 W/m 0,0 km/h (0 Bft) 97,87 %
29.12.2018 03:46 3,2 C 2,8 C 2,2 C 95 % 1030,4 hPa 0,0 l/m 0 min 0 min 0 W/m 0,0 km/h (0 Bft) 89,36 %
29.12.2018 03:48 3,2 C 2,8 C 2,2 C 95 % 1030,4 hPa 0,0 l/m 0 min 0 min 0 W/m 0,0 km/h (0 Bft) 97,87 %
29.12.2018 03:50 3,2 C 2,8 C 2,2 C 95 % 1030,4 hPa 0,0 l/m 0 min 0 min 0 W/m 0,0 km/h (0 Bft) 89,13 %
29.12.2018 03:52 3,2 C 2,8 C 2,2 C 95 % 1030,4 hPa 0,0 l/m 0 min 0 min 0 W/m 0,0 km/h (0 Bft) 95,74 %
29.12.2018 03:54 3,2 C 2,8 C 2,2 C 95 % 1030,3 hPa 0,0 l/m 0 min 0 min 0 W/m 3,2 km/h (1 Bft) 95,74 %
29.12.2018 03:56 3,2 C 2,8 C 2,2 C 95 % 1030,3 hPa 0,0 l/m 0 min 0 min 0 W/m 3,2 km/h (1 Bft) 95,74 %
29.12.2018 03:58 3,2 C 2,8 C 2,2 C 95 % 1030,2 hPa 0,0 l/m 0 min 0 min 0 W/m 3,2 km/h (1 Bft) 100,00 %
29.12.2018 04:00 3,2 C 2,8 C 2,2 C 95 % 1030,4 hPa 0,0 l/m 0 min 0 min 0 W/m 6,4 km/h (2 Bft) 100,00 %
29.12.2018 04:02 3,2 C 2,8 C 2,2 C 95 % 1030,3 hPa 0,0 l/m 0 min 0 min 0 W/m 3,2 km/h (1 Bft) 100,00 %
29.12.2018 04:04 3,2 C 2,8 C 2,2 C 95 % 1030,3 hPa 0,0 l/m 0 min 0 min 0 W/m 6,4 km/h (2 Bft) 95,74 %
29.12.2018 04:06 3,2 C 2,8 C 2,2 C 95 % 1030,3 hPa 0,0 l/m 0 min 0 min 0 W/m 3,2 km/h (1 Bft) 100,00 %
29.12.2018 04:08 3,2 C 2,8 C 2,2 C 95 % 1030,3 hPa 0,0 l/m 0 min 0 min 0 W/m 0,0 km/h (0 Bft) 97,87 %
29.12.2018 04:10 3,2 C 2,8 C 2,2 C 95 % 1030,3 hPa 0,0 l/m 0 min 0 min 0 W/m 9,7 km/h (2 Bft) 97,87 %
29.12.2018 04:12 3,2 C 2,8 C 2,2 C 95 % 1030,3 hPa 0,0 l/m 0 min 0 min 0 W/m 0,0 km/h (0 Bft) 97,83 %
29.12.2018 04:14 3,2 C 2,8 C 2,2 C 95 % 1030,2 hPa 0,0 l/m 0 min 0 min 0 W/m 3,2 km/h (1 Bft) 97,87 %
29.12.2018 04:16 3,2 C 2,8 C 2,2 C 95 % 1030,4 hPa 0,0 l/m 0 min 0 min 0 W/m 12,9 km/h (3 Bft) 95,74 %
29.12.2018 04:18 3,2 C 2,8 C 2,2 C 95 % 1030,3 hPa 0,0 l/m 0 min 0 min 0 W/m 6,4 km/h (2 Bft) 97,87 %
29.12.2018 04:20 3,2 C 2,8 C 2,2 C 95 % 1030,3 hPa 0,0 l/m 0 min 0 min 0 W/m 3,2 km/h (1 Bft) 95,74 %
29.12.2018 04:22 3,2 C 2,8 C 2,2 C 95 % 1030,3 hPa 0,0 l/m 0 min 0 min 0 W/m 9,7 km/h (2 Bft) 95,74 %
29.12.2018 04:24 3,2 C 2,8 C 2,2 C 95 % 1030,3 hPa 0,0 l/m 0 min 0 min 0 W/m 3,2 km/h (1 Bft) 95,65 %
29.12.2018 04:26 3,2 C 2,8 C 2,2 C 95 % 1030,3 hPa 0,0 l/m 0 min 0 min 0 W/m 6,4 km/h (2 Bft) 91,49 %
29.12.2018 04:28 3,2 C 2,8 C 2,2 C 95 % 1030,3 hPa 0,0 l/m 0 min 0 min 0 W/m 9,7 km/h (2 Bft) 91,49 %
29.12.2018 04:30 3,2 C 2,8 C 2,2 C 95 % 1030,3 hPa 0,0 l/m 0 min 0 min 0 W/m 6,4 km/h (2 Bft) 87,23 %
29.12.2018 04:32 3,2 C 2,8 C 2,2 C 95 % 1030,2 hPa 0,0 l/m 0 min 0 min 0 W/m 6,4 km/h (2 Bft) 82,98 %
29.12.2018 04:34 3,2 C 2,8 C 2,2 C 95 % 1030,2 hPa 0,0 l/m 0 min 0 min 0 W/m 3,2 km/h (1 Bft) 76,60 %
29.12.2018 04:36 3,3 C 2,8 C 2,2 C 95 % 1030,3 hPa 0,0 l/m 0 min 0 min 0 W/m 3,2 km/h (1 Bft) 71,74 %
29.12.2018 04:38 3,3 C 2,8 C 2,2 C 95 % 1030,2 hPa 0,0 l/m 0 min 0 min 0 W/m 0,0 km/h (0 Bft) 80,85 %
29.12.2018 04:40 3,3 C 2,8 C 2,2 C 95 % 1030,2 hPa 0,0 l/m 0 min 0 min 0 W/m 0,0 km/h (0 Bft) 74,47 %
29.12.2018 04:42 3,3 C 2,8 C 2,2 C 95 % 1030,2 hPa 0,0 l/m 0 min 0 min 0 W/m 0,0 km/h (0 Bft) 78,72 %
29.12.2018 04:44 3,3 C 2,8 C 2,2 C 95 % 1030,2 hPa 0,0 l/m 0 min 0 min 0 W/m 3,2 km/h (1 Bft) 81,25 %
29.12.2018 04:46 3,3 C 2,8 C 2,2 C 95 % 1030,2 hPa 0,0 l/m 0 min 0 min 0 W/m 0,0 km/h (0 Bft) 93,62 %
29.12.2018 04:48 3,3 C 2,8 C 2,2 C 95 % 1030,1 hPa 0,0 l/m 0 min 0 min 0 W/m 0,0 km/h (0 Bft) 80,43 %
29.12.2018 04:50 3,3 C 2,8 C 2,2 C 95 % 1030,1 hPa 0,0 l/m 0 min 0 min 0 W/m 3,2 km/h (1 Bft) 74,47 %
29.12.2018 04:52 3,3 C 2,8 C 2,2 C 95 % 1030,1 hPa 0,0 l/m 0 min 0 min 0 W/m 0,0 km/h (0 Bft) 82,98 %
29.12.2018 04:54 3,3 C 2,8 C 2,2 C 95 % 1030,1 hPa 0,0 l/m 0 min 0 min 0 W/m 0,0 km/h (0 Bft) 85,11 %
29.12.2018 04:56 3,3 C 2,8 C 2,2 C 95 % 1030,1 hPa 0,0 l/m 0 min 0 min 0 W/m 0,0 km/h (0 Bft) 85,11 %
29.12.2018 04:58 3,3 C 2,8 C 2,2 C 95 % 1030,1 hPa 0,0 l/m 0 min 0 min 0 W/m 3,2 km/h (1 Bft) 95,74 %
29.12.2018 05:00 3,3 C 2,8 C 2,2 C 95 % 1030,1 hPa 0,0 l/m 0 min 0 min 0 W/m 0,0 km/h (0 Bft) 89,13 %
29.12.2018 05:02 3,3 C 2,8 C 2,2 C 95 % 1030,2 hPa 0,0 l/m 0 min 0 min 0 W/m 0,0 km/h (0 Bft) 91,49 %
29.12.2018 05:04 3,3 C 2,8 C 2,2 C 95 % 1030,2 hPa 0,0 l/m 0 min 0 min 0 W/m 0,0 km/h (0 Bft) 91,49 %
29.12.2018 05:05 3,3 C 2,8 C 2,2 C 95 % 1030,2 hPa 0,0 l/m 0 min 0 min 0 W/m 0,0 km/h (0 Bft) 93,86 %
29.12.2018 05:10 3,3 C 2,8 C 2,2 C 95 % 1030,0 hPa 0,0 l/m 0 min 0 min 0 W/m 0,0 km/h (0 Bft) 93,86 %
29.12.2018 05:12 3,3 C 2,8 C 2,2 C 95 % 1029,9 hPa 0,0 l/m 0 min 0 min 0 W/m 3,2 km/h (1 Bft) 100,00 %
29.12.2018 05:14 3,3 C 2,8 C 2,2 C 95 % 1029,8 hPa 0,0 l/m 0 min 0 min 0 W/m 3,2 km/h (1 Bft) 97,87 %
29.12.2018 05:16 3,3 C 2,8 C 2,2 C 95 % 1029,9 hPa 0,0 l/m 0 min 0 min 0 W/m 0,0 km/h (0 Bft) 93,62 %
29.12.2018 05:18 3,3 C 2,8 C 2,2 C 95 % 1029,9 hPa 0,0 l/m 0 min 0 min 0 W/m 0,0 km/h (0 Bft) 93,62 %
29.12.2018 05:20 3,3 C 2,8 C 2,2 C 95 % 1029,9 hPa 0,0 l/m 0 min 2 min 0 W/m 0,0 km/h (0 Bft) 93,62 %
29.12.2018 05:22 3,3 C 2,8 C 2,2 C 95 % 1029,9 hPa 0,0 l/m 0 min 0 min 0 W/m 0,0 km/h (0 Bft) 91,30 %
29.12.2018 05:24 3,3 C 2,8 C 2,2 C 95 % 1029,9 hPa 0,0 l/m 0 min 0 min 0 W/m 0,0 km/h (0 Bft) 91,49 %
29.12.2018 05:26 3,3 C 2,8 C 2,2 C 95 % 1029,8 hPa 0,0 l/m 0 min 0 min 0 W/m 0,0 km/h (0 Bft) 91,49 %
29.12.2018 05:28 3,3 C 2,8 C 2,2 C 95 % 1029,8 hPa 0,0 l/m 0 min 0 min 0 W/m 0,0 km/h (0 Bft) 87,23 %
29.12.2018 05:30 3,3 C 2,8 C 2,2 C 95 % 1029,7 hPa 0,0 l/m 0 min 0 min 0 W/m 0,0 km/h (0 Bft) 93,62 %
29.12.2018 05:32 3,3 C 2,8 C 2,2 C 96 % 1029,7 hPa 0,0 l/m 0 min 0 min 0 W/m 3,2 km/h (1 Bft) 95,74 %
29.12.2018 05:34 3,3 C 2,8 C 2,2 C 96 % 1029,7 hPa 0,0 l/m 0 min 0 min 0 W/m 0,0 km/h (0 Bft) 97,83 %
29.12.2018 05:36 3,3 C 2,8 C 2,2 C 96 % 1029,7 hPa 0,0 l/m 0 min 0 min 0 W/m 6,4 km/h (2 Bft) 97,87 %
29.12.2018 05:38 3,3 C 2,8 C 2,2 C 96 % 1029,8 hPa 0,0 l/m 0 min 0 min 0 W/m 3,2 km/h (1 Bft) 94,34 %
29.12.2018 05:40 3,3 C 2,8 C 2,2 C 96 % 1029,7 hPa 0,0 l/m 0 min 0 min 0 W/m 0,0 km/h (0 Bft) 94,74 %
29.12.2018 05:42 3,3 C 2,8 C 2,2 C 96 % 1029,7 hPa 0,0 l/m 0 min 2 min 0 W/m 0,0 km/h (0 Bft) 97,87 %
29.12.2018 05:44 3,3 C 2,8 C 2,2 C 96 % 1029,7 hPa 0,0 l/m 0 min 0 min 0 W/m 0,0 km/h (0 Bft) 91,49 %
29.12.2018 05:46 3,3 C 2,8 C 2,2 C 96 % 1029,7 hPa 0,0 l/m 0 min 0 min 0 W/m 0,0 km/h (0 Bft) 100,00 %
29.12.2018 05:48 3,3 C 2,8 C 2,2 C 96 % 1029,7 hPa 0,0 l/m 0 min 0 min 0 W/m 0,0 km/h (0 Bft) 97,83 %
29.12.2018 05:50 3,3 C 2,8 C 2,2 C 96 % 1029,7 hPa 0,0 l/m 0 min 2 min 0 W/m 6,4 km/h (2 Bft) 97,87 %
29.12.2018 05:52 3,3 C 2,8 C 2,2 C 96 % 1029,7 hPa 0,0 l/m 0 min 0 min 0 W/m 3,2 km/h (1 Bft) 93,62 %
29.12.2018 05:54 3,3 C 2,8 C 2,2 C 96 % 1029,7 hPa 0,0 l/m 0 min 0 min 0 W/m 3,2 km/h (1 Bft) 93,62 %
29.12.2018 05:56 3,3 C 2,8 C 2,2 C 96 % 1029,7 hPa 0,0 l/m 0 min 0 min 0 W/m 0,0 km/h (0 Bft) 93,62 %
29.12.2018 05:58 3,3 C 2,8 C 2,2 C 96 % 1029,7 hPa 0,0 l/m 0 min 0 min 0 W/m 0,0 km/h (0 Bft) 97,87 %
29.12.2018 06:00 3,3 C 2,8 C 2,2 C 96 % 1029,6 hPa 0,0 l/m 0 min 0 min 0 W/m 3,2 km/h (1 Bft) 100,00 %
29.12.2018 06:02 3,3 C 2,8 C 2,2 C 96 % 1029,5 hPa 0,0 l/m 0 min 0 min 0 W/m 6,4 km/h (2 Bft) 97,87 %
29.12.2018 06:04 3,4 C 2,8 C 2,2 C 96 % 1029,5 hPa 0,0 l/m 0 min 0 min 0 W/m 3,2 km/h (1 Bft) 95,74 %
29.12.2018 06:08 3,4 C 2,8 C 2,2 C 96 % 1029,5 hPa 0,0 l/m 0 min 4 min 0 W/m 6,4 km/h (2 Bft) 97,87 %
29.12.2018 06:10 3,4 C 2,8 C 2,2 C 96 % 1029,5 hPa 0,0 l/m 0 min 0 min 0 W/m 6,4 km/h (2 Bft) 93,62 %
29.12.2018 06:12 3,4 C 2,8 C 2,2 C 96 % 1029,6 hPa 0,0 l/m 0 min 0 min 0 W/m 3,2 km/h (1 Bft) 86,96 %
29.12.2018 06:14 3,4 C 2,8 C 2,2 C 96 % 1029,6 hPa 0,0 l/m 0 min 0 min 0 W/m 3,2 km/h (1 Bft) 87,23 %
29.12.2018 06:16 3,4 C 2,8 C 2,2 C 96 % 1029,6 hPa 0,0 l/m 0 min 0 min 0 W/m 3,2 km/h (1 Bft) 89,36 %
29.12.2018 06:18 3,4 C 2,8 C 2,2 C 96 % 1029,6 hPa 0,0 l/m 0 min 2 min 0 W/m 0,0 km/h (0 Bft) 93,62 %
29.12.2018 06:20 3,4 C 2,8 C 2,2 C 96 % 1029,6 hPa 0,0 l/m 0 min 0 min 0 W/m 0,0 km/h (0 Bft) 91,49 %
29.12.2018 06:22 3,4 C 2,8 C 2,2 C 96 % 1029,6 hPa 0,0 l/m 0 min 0 min 0 W/m 9,7 km/h (2 Bft) 93,62 %
29.12.2018 06:24 3,4 C 2,8 C 2,2 C 96 % 1029,6 hPa 0,0 l/m 0 min 0 min 0 W/m 3,2 km/h (1 Bft) 95,65 %
29.12.2018 06:26 3,4 C 2,8 C 2,2 C 96 % 1029,7 hPa 0,0 l/m 0 min 2 min 0 W/m 6,4 km/h (2 Bft) 89,36 %
29.12.2018 06:28 3,4 C 2,8 C 2,2 C 96 % 1029,6 hPa 0,0 l/m 0 min 0 min 0 W/m 0,0 km/h (0 Bft) 93,62 %
29.12.2018 06:30 3,4 C 2,8 C 2,2 C 96 % 1029,7 hPa 0,0 l/m 0 min 0 min 0 W/m 0,0 km/h (0 Bft) 97,87 %
29.12.2018 06:32 3,4 C 2,8 C 2,2 C 96 % 1029,6 hPa 0,0 l/m 0 min 0 min 0 W/m 3,2 km/h (1 Bft) 97,87 %
29.12.2018 06:34 3,4 C 2,8 C 2,2 C 96 % 1029,7 hPa 0,0 l/m 0 min 0 min 0 W/m 3,2 km/h (1 Bft) 100,00 %
29.12.2018 06:36 3,5 C 2,8 C 2,2 C 96 % 1029,7 hPa 0,0 l/m 0 min 2 min 0 W/m 0,0 km/h (0 Bft) 100,00 %
29.12.2018 06:38 3,5 C 2,8 C 2,2 C 96 % 1029,7 hPa 0,0 l/m 0 min 2 min 0 W/m 0,0 km/h (0 Bft) 100,00 %
29.12.2018 06:40 3,5 C 2,8 C 2,2 C 96 % 1029,8 hPa 0,0 l/m 0 min 0 min 0 W/m 0,0 km/h (0 Bft) 100,00 %
29.12.2018 06:42 3,5 C 2,8 C 2,2 C 96 % 1029,9 hPa 0,0 l/m 0 min 0 min 0 W/m 0,0 km/h (0 Bft) 97,87 %
29.12.2018 06:44 3,5 C 2,8 C 2,2 C 96 % 1030,0 hPa 0,0 l/m 0 min 0 min 0 W/m 0,0 km/h (0 Bft) 97,83 %
29.12.2018 06:46 3,5 C 2,8 C 2,2 C 96 % 1030,0 hPa 0,0 l/m 0 min 0 min 0 W/m 0,0 km/h (0 Bft) 100,00 %
29.12.2018 06:48 3,5 C 2,8 C 2,2 C 96 % 1030,0 hPa 0,0 l/m 0 min 0 min 0 W/m 0,0 km/h (0 Bft) 97,87 %
29.12.2018 06:50 3,5 C 2,8 C 2,2 C 96 % 1030,0 hPa 0,0 l/m 0 min 0 min 0 W/m 0,0 km/h (0 Bft) 97,87 %
29.12.2018 06:52 3,5 C 2,8 C 2,2 C 96 % 1030,0 hPa 0,0 l/m 0 min 0 min 0 W/m 0,0 km/h (0 Bft) 100,00 %
29.12.2018 06:54 3,6 C 2,8 C 2,2 C 96 % 1030,1 hPa 0,0 l/m 0 min 0 min 0 W/m 3,2 km/h (1 Bft) 95,74 %
29.12.2018 06:56 3,5 C 2,8 C 2,2 C 96 % 1030,1 hPa 0,0 l/m 0 min 0 min 0 W/m 3,2 km/h (1 Bft) 97,83 %
29.12.2018 06:58 3,6 C 2,8 C 2,2 C 96 % 1030,1 hPa 0,0 l/m 0 min 0 min 0 W/m 3,2 km/h (1 Bft) 95,74 %
29.12.2018 07:00 3,6 C 2,8 C 2,2 C 96 % 1030,1 hPa 0,0 l/m 0 min 0 min 0 W/m 3,2 km/h (1 Bft) 95,74 %
29.12.2018 07:02 3,6 C 2,8 C 2,2 C 96 % 1030,2 hPa 0,0 l/m 0 min 0 min 0 W/m 3,2 km/h (1 Bft) 95,74 %
29.12.2018 07:04 3,6 C 2,8 C 2,2 C 96 % 1030,2 hPa 0,0 l/m 0 min 0 min 0 W/m 0,0 km/h (0 Bft) 97,87 %
29.12.2018 07:06 3,6 C 2,8 C 2,2 C 96 % 1030,2 hPa 0,0 l/m 0 min 0 min 0 W/m 0,0 km/h (0 Bft) 97,87 %
29.12.2018 07:08 3,6 C 2,8 C 2,2 C 96 % 1030,3 hPa 0,0 l/m 0 min 0 min 0 W/m 3,2 km/h (1 Bft) 97,83 %
29.12.2018 07:10 3,6 C 2,8 C 2,2 C 96 % 1030,2 hPa 0,0 l/m 0 min 0 min 0 W/m 0,0 km/h (0 Bft) 95,74 %
29.12.2018 07:12 3,6 C 2,8 C 2,2 C 96 % 1030,2 hPa 0,0 l/m 0 min 0 min 0 W/m 0,0 km/h (0 Bft) 95,74 %
29.12.2018 07:14 3,6 C 2,8 C 2,2 C 96 % 1030,3 hPa 0,0 l/m 0 min 0 min 0 W/m 3,2 km/h (1 Bft) 97,87 %
29.12.2018 07:16 3,6 C 2,8 C 2,2 C 96 % 1030,2 hPa 0,0 l/m 0 min 0 min 0 W/m 3,2 km/h (1 Bft) 93,62 %
29.12.2018 07:18 3,6 C 2,8 C 2,2 C 96 % 1030,3 hPa 0,0 l/m 0 min 0 min 0 W/m 3,2 km/h (1 Bft) 95,74 %
29.12.2018 07:20 3,6 C 2,8 C 2,2 C 96 % 1030,3 hPa 0,0 l/m 0 min 0 min 0 W/m 6,4 km/h (2 Bft) 95,65 %
29.12.2018 07:22 3,6 C 2,8 C 2,2 C 97 % 1030,1 hPa 0,0 l/m 0 min 0 min 0 W/m 3,2 km/h (1 Bft) 97,87 %
29.12.2018 07:24 3,6 C 2,8 C 2,2 C 97 % 1030,2 hPa 0,0 l/m 0 min 0 min 0 W/m 6,4 km/h (2 Bft) 91,49 %
29.12.2018 07:26 3,6 C 2,8 C 2,2 C 97 % 1030,2 hPa 0,0 l/m 0 min 0 min 0 W/m 0,0 km/h (0 Bft) 89,36 %
29.12.2018 07:28 3,6 C 2,8 C 2,2 C 97 % 1030,2 hPa 0,0 l/m 0 min 0 min 0 W/m 3,2 km/h (1 Bft) 95,74 %
29.12.2018 07:30 3,6 C 2,8 C 2,2 C 97 % 1030,2 hPa 0,0 l/m 0 min 0 min 0 W/m 3,2 km/h (1 Bft) 87,23 %
29.12.2018 07:32 3,6 C 2,8 C 2,2 C 97 % 1030,3 hPa 0,0 l/m 0 min 0 min 0 W/m 3,2 km/h (1 Bft) 84,78 %
29.12.2018 07:34 3,6 C 2,8 C 2,2 C 97 % 1030,3 hPa 0,0 l/m 0 min 0 min 0 W/m 3,2 km/h (1 Bft) 80,85 %
29.12.2018 07:36 3,6 C 2,8 C 2,2 C 97 % 1030,2 hPa 0,0 l/m 0 min 0 min 0 W/m 0,0 km/h (0 Bft) 91,49 %
29.12.2018 07:38 3,6 C 2,8 C 2,2 C 97 % 1030,2 hPa 0,0 l/m 0 min 0 min 0 W/m 0,0 km/h (0 Bft) 91,49 %
29.12.2018 07:40 3,6 C 2,8 C 2,2 C 97 % 1030,2 hPa 0,0 l/m 0 min 0 min 0 W/m 0,0 km/h (0 Bft) 89,36 %
29.12.2018 07:42 3,6 C 2,8 C 2,2 C 97 % 1030,2 hPa 0,0 l/m 0 min 0 min 0 W/m 0,0 km/h (0 Bft) 78,26 %
29.12.2018 07:44 3,6 C 2,8 C 2,2 C 97 % 1030,2 hPa 0,0 l/m 0 min 0 min 0 W/m 0,0 km/h (0 Bft) 78,72 %
29.12.2018 07:46 3,6 C 2,8 C 2,2 C 97 % 1030,2 hPa 0,0 l/m 0 min 0 min 0 W/m 3,2 km/h (1 Bft) 87,23 %
29.12.2018 07:48 3,6 C 2,8 C 2,2 C 97 % 1030,1 hPa 0,0 l/m 0 min 0 min 0 W/m 6,4 km/h (2 Bft) 87,23 %
29.12.2018 07:50 3,7 C 2,8 C 2,8 C 97 % 1030,1 hPa 0,0 l/m 0 min 0 min 0 W/m 0,0 km/h (0 Bft) 91,49 %
29.12.2018 07:52 3,6 C 2,8 C 2,8 C 97 % 1030,1 hPa 0,0 l/m 0 min 0 min 0 W/m 0,0 km/h (0 Bft) 95,74 %
29.12.2018 07:54 3,6 C 3,3 C 2,8 C 97 % 1030,2 hPa 0,0 l/m 0 min 0 min 0 W/m 3,2 km/h (1 Bft) 93,48 %
29.12.2018 07:56 3,7 C 3,3 C 2,8 C 97 % 1030,2 hPa 0,0 l/m 0 min 0 min 0 W/m 6,4 km/h (2 Bft) 87,23 %
29.12.2018 07:58 3,7 C 3,3 C 2,8 C 97 % 1030,1 hPa 0,0 l/m 0 min 0 min 0 W/m 0,0 km/h (0 Bft) 87,23 %
29.12.2018 08:00 3,7 C 3,3 C 2,8 C 97 % 1030,2 hPa 0,0 l/m 0 min 0 min 0 W/m 6,4 km/h (2 Bft) 95,74 %
29.12.2018 08:02 3,7 C 3,3 C 2,8 C 97 % 1030,2 hPa 0,0 l/m 0 min 0 min 0 W/m 3,2 km/h (1 Bft) 97,87 %
29.12.2018 08:04 3,7 C 3,3 C 2,8 C 97 % 1030,2 hPa 0,0 l/m 0 min 0 min 0 W/m 3,2 km/h (1 Bft) 95,74 %
29.12.2018 08:06 3,7 C 3,3 C 2,8 C 97 % 1030,2 hPa 0,0 l/m 0 min 0 min 0 W/m 3,2 km/h (1 Bft) 97,83 %
29.12.2018 08:08 3,7 C 3,3 C 2,8 C 97 % 1030,3 hPa 0,0 l/m 0 min 0 min 0 W/m 3,2 km/h (1 Bft) 94,34 %
29.12.2018 08:10 3,7 C 3,3 C 2,8 C 97 % 1030,2 hPa 0,0 l/m 0 min 0 min 0 W/m 6,4 km/h (2 Bft) 97,37 %
29.12.2018 08:12 3,7 C 3,3 C 2,8 C 97 % 1030,2 hPa 0,0 l/m 0 min 0 min 0 W/m 3,2 km/h (1 Bft) 93,62 %
29.12.2018 08:14 3,7 C 3,3 C 2,8 C 97 % 1030,2 hPa 0,0 l/m 0 min 0 min 0 W/m 6,4 km/h (2 Bft) 95,74 %
29.12.2018 08:16 3,7 C 3,3 C 2,8 C 97 % 1030,2 hPa 0,0 l/m 0 min 0 min 0 W/m 0,0 km/h (0 Bft) 95,74 %
29.12.2018 08:18 3,7 C 3,3 C 2,8 C 97 % 1030,2 hPa 0,0 l/m 0 min 0 min 0 W/m 3,2 km/h (1 Bft) 97,87 %
29.12.2018 08:20 3,7 C 3,3 C 2,8 C 97 % 1030,3 hPa 0,0 l/m 0 min 0 min 0 W/m 3,2 km/h (1 Bft) 95,65 %
29.12.2018 08:22 3,7 C 3,3 C 2,8 C 97 % 1030,3 hPa 0,0 l/m 0 min 0 min 0 W/m 0,0 km/h (0 Bft) 97,87 %
29.12.2018 08:24 3,8 C 3,3 C 2,8 C 97 % 1030,3 hPa 0,0 l/m 0 min 0 min 0 W/m 3,2 km/h (1 Bft) 95,74 %
29.12.2018 08:26 3,8 C 3,3 C 2,8 C 97 % 1030,3 hPa 0,0 l/m 0 min 0 min 0 W/m 0,0 km/h (0 Bft) 95,74 %
29.12.2018 08:28 3,8 C 3,3 C 2,8 C 97 % 1030,4 hPa 0,0 l/m 0 min 0 min 0 W/m 0,0 km/h (0 Bft) 95,74 %
29.12.2018 08:30 3,8 C 3,3 C 2,8 C 97 % 1030,3 hPa 0,0 l/m 0 min 0 min 0 W/m 3,2 km/h (1 Bft) 97,87 %
29.12.2018 08:32 3,8 C 3,3 C 2,8 C 97 % 1030,3 hPa 0,0 l/m 0 min 0 min 0 W/m 3,2 km/h (1 Bft) 97,83 %
29.12.2018 08:34 3,8 C 3,3 C 2,8 C 97 % 1030,4 hPa 0,0 l/m 0 min 0 min 0 W/m 0,0 km/h (0 Bft) 97,87 %
29.12.2018 08:36 3,8 C 3,3 C 2,8 C 97 % 1030,5 hPa 0,0 l/m 0 min 0 min 0 W/m 0,0 km/h (0 Bft) 96,61 %
29.12.2018 08:38 3,8 C 3,3 C 2,8 C 97 % 1030,4 hPa 0,0 l/m 0 min 0 min 0 W/m 0,0 km/h (0 Bft) 97,14 %
29.12.2018 08:40 3,8 C 3,3 C 2,8 C 97 % 1030,4 hPa 0,0 l/m 0 min 0 min 0 W/m 6,4 km/h (2 Bft) 97,96 %
29.12.2018 08:42 3,8 C 3,3 C 2,8 C 97 % 1030,4 hPa 0,0 l/m 0 min 0 min 0 W/m 3,2 km/h (1 Bft) 97,87 %
29.12.2018 08:44 3,8 C 3,3 C 2,8 C 97 % 1030,3 hPa 0,0 l/m 0 min 0 min 0 W/m 0,0 km/h (0 Bft) 97,87 %
29.12.2018 08:46 3,8 C 3,3 C 2,8 C 97 % 1030,3 hPa 0,0 l/m 0 min 0 min 0 W/m 0,0 km/h (0 Bft) 97,87 %
29.12.2018 08:48 3,8 C 3,3 C 2,8 C 97 % 1030,3 hPa 0,0 l/m 0 min 0 min 0 W/m 3,2 km/h (1 Bft) 97,87 %
29.12.2018 08:50 3,8 C 3,3 C 2,8 C 97 % 1030,4 hPa 0,0 l/m 0 min 0 min 0 W/m 0,0 km/h (0 Bft) 97,87 %
29.12.2018 08:52 3,8 C 3,3 C 2,8 C 97 % 1030,3 hPa 0,0 l/m 0 min 0 min 2 W/m 0,0 km/h (0 Bft) 97,83 %
29.12.2018 08:54 3,8 C 3,3 C 2,8 C 97 % 1030,3 hPa 0,0 l/m 0 min 0 min 5 W/m 3,2 km/h (1 Bft) 95,74 %
29.12.2018 08:56 3,8 C 3,3 C 2,8 C 97 % 1030,4 hPa 0,0 l/m 0 min 0 min 5 W/m 3,2 km/h (1 Bft) 97,87 %
29.12.2018 08:58 3,8 C 3,3 C 2,8 C 97 % 1030,3 hPa 0,0 l/m 0 min 0 min 5 W/m 3,2 km/h (1 Bft) 97,87 %
29.12.2018 09:00 3,9 C 3,3 C 2,8 C 97 % 1030,3 hPa 0,0 l/m 0 min 0 min 5 W/m 0,0 km/h (0 Bft) 97,87 %
29.12.2018 09:02 3,9 C 3,3 C 2,8 C 97 % 1030,3 hPa 0,0 l/m 0 min 0 min 6 W/m 6,4 km/h (2 Bft) 95,74 %
29.12.2018 09:04 3,9 C 3,3 C 2,8 C 97 % 1030,3 hPa 0,0 l/m 0 min 0 min 7 W/m 0,0 km/h (0 Bft) 97,83 %
29.12.2018 09:06 3,9 C 3,3 C 2,8 C 97 % 1030,3 hPa 0,0 l/m 0 min 0 min 7 W/m 3,2 km/h (1 Bft) 97,87 %
29.12.2018 09:08 3,9 C 3,3 C 2,8 C 97 % 1030,3 hPa 0,0 l/m 0 min 0 min 7 W/m 0,0 km/h (0 Bft) 95,74 %
29.12.2018 09:10 3,9 C 3,3 C 2,8 C 97 % 1030,3 hPa 0,0 l/m 0 min 0 min 7 W/m 6,4 km/h (2 Bft) 97,87 %
29.12.2018 09:12 3,9 C 3,3 C 2,8 C 97 % 1030,3 hPa 0,0 l/m 0 min 0 min 7 W/m 0,0 km/h (0 Bft) 100,00 %
29.12.2018 09:14 3,9 C 3,3 C 2,8 C 97 % 1030,4 hPa 0,0 l/m 0 min 0 min 7 W/m 3,2 km/h (1 Bft) 97,87 %
29.12.2018 09:16 3,9 C 3,3 C 2,8 C 97 % 1030,3 hPa 0,0 l/m 0 min 0 min 7 W/m 0,0 km/h (0 Bft) 100,00 %
29.12.2018 09:18 3,9 C 3,3 C 2,8 C 97 % 1030,4 hPa 0,0 l/m 0 min 0 min 7 W/m 0,0 km/h (0 Bft) 97,87 %
29.12.2018 09:20 4,0 C 3,9 C 2,8 C 97 % 1030,3 hPa 0,0 l/m 0 min 0 min 8 W/m 3,2 km/h (1 Bft) 100,00 %
29.12.2018 09:22 4,0 C 3,9 C 2,8 C 97 % 1030,3 hPa 0,0 l/m 0 min 0 min 9 W/m 3,2 km/h (1 Bft) 97,87 %
29.12.2018 09:24 4,0 C 3,9 C 2,8 C 97 % 1030,3 hPa 0,0 l/m 0 min 0 min 9 W/m 0,0 km/h (0 Bft) 100,00 %
29.12.2018 09:26 4,0 C 3,9 C 3,3 C 97 % 1030,3 hPa 0,0 l/m 0 min 0 min 9 W/m 6,4 km/h (2 Bft) 97,87 %
29.12.2018 09:28 4,0 C 3,9 C 3,3 C 97 % 1030,3 hPa 0,0 l/m 0 min 0 min 9 W/m 3,2 km/h (1 Bft) 95,65 %
29.12.2018 09:30 4,1 C 3,9 C 3,3 C 97 % 1030,3 hPa 0,0 l/m 0 min 0 min 9 W/m 9,7 km/h (2 Bft) 95,74 %
29.12.2018 09:32 4,1 C 3,9 C 3,3 C 97 % 1030,3 hPa 0,0 l/m 0 min 0 min 9 W/m 6,4 km/h (2 Bft) 97,87 %
29.12.2018 09:34 4,1 C 3,9 C 3,3 C 97 % 1030,2 hPa 0,0 l/m 0 min 0 min 9 W/m 6,4 km/h (2 Bft) 97,87 %
29.12.2018 09:36 4,1 C 3,9 C 3,3 C 97 % 1030,3 hPa 0,0 l/m 0 min 0 min 9 W/m 12,9 km/h (3 Bft) 97,87 %
29.12.2018 09:38 4,1 C 3,9 C 3,3 C 97 % 1030,2 hPa 0,0 l/m 0 min 0 min 11 W/m 3,2 km/h (1 Bft) 98,11 %
29.12.2018 09:40 4,1 C 3,9 C 3,3 C 97 % 1030,2 hPa 0,0 l/m 0 min 0 min 11 W/m 0,0 km/h (0 Bft) 97,37 %
29.12.2018 09:42 4,1 C 3,9 C 3,3 C 97 % 1030,2 hPa 0,0 l/m 0 min 0 min 11 W/m 6,4 km/h (2 Bft) 97,87 %
29.12.2018 09:44 4,1 C 3,9 C 3,3 C 97 % 1030,2 hPa 0,0 l/m 0 min 0 min 11 W/m 12,9 km/h (3 Bft) 97,83 %
29.12.2018 09:46 4,1 C 3,9 C 3,3 C 97 % 1030,2 hPa 0,0 l/m 0 min 0 min 11 W/m 9,7 km/h (2 Bft) 97,87 %
29.12.2018 09:48 4,2 C 3,9 C 3,3 C 97 % 1030,2 hPa 0,0 l/m 0 min 0 min 11 W/m 6,4 km/h (2 Bft) 95,74 %
29.12.2018 09:50 4,2 C 3,9 C 3,3 C 97 % 1030,2 hPa 0,0 l/m 0 min 0 min 11 W/m 16,1 km/h (3 Bft) 97,92 %
29.12.2018 09:52 4,2 C 3,9 C 3,3 C 97 % 1030,1 hPa 0,0 l/m 0 min 0 min 12 W/m 9,7 km/h (2 Bft) 95,74 %
29.12.2018 09:54 4,2 C 3,9 C 3,3 C 97 % 1030,1 hPa 0,0 l/m 0 min 0 min 14 W/m 6,4 km/h (2 Bft) 95,65 %
29.12.2018 09:56 4,2 C 3,9 C 3,3 C 97 % 1030,1 hPa 0,0 l/m 0 min 0 min 14 W/m 12,9 km/h (3 Bft) 95,74 %
29.12.2018 09:58 4,2 C 3,9 C 3,3 C 97 % 1030,1 hPa 0,0 l/m 0 min 0 min 14 W/m 6,4 km/h (2 Bft) 95,74 %
29.12.2018 10:00 4,2 C 3,9 C 3,3 C 97 % 1030,1 hPa 0,0 l/m 0 min 0 min 14 W/m 6,4 km/h (2 Bft) 97,87 %
29.12.2018 10:02 4,2 C 3,9 C 3,3 C 97 % 1030,1 hPa 0,0 l/m 0 min 0 min 16 W/m 9,7 km/h (2 Bft) 94,29 %
29.12.2018 10:04 4,2 C 3,9 C 3,3 C 97 % 1030,0 hPa 0,0 l/m 0 min 0 min 16 W/m 9,7 km/h (2 Bft) 93,33 %
29.12.2018 10:06 4,2 C 3,9 C 3,3 C 97 % 1030,0 hPa 0,0 l/m 0 min 0 min 16 W/m 12,9 km/h (3 Bft) 95,74 %
29.12.2018 10:08 4,2 C 3,9 C 3,3 C 97 % 1030,0 hPa 0,0 l/m 0 min 0 min 16 W/m 12,9 km/h (3 Bft) 97,87 %
29.12.2018 10:10 4,2 C 3,9 C 3,3 C 97 % 1030,0 hPa 0,0 l/m 0 min 0 min 16 W/m 9,7 km/h (2 Bft) 98,11 %
29.12.2018 10:12 4,2 C 3,9 C 3,3 C 97 % 1030,0 hPa 0,0 l/m 0 min 0 min 18 W/m 12,9 km/h (3 Bft) 93,62 %
29.12.2018 10:14 4,3 C 3,9 C 3,3 C 97 % 1030,0 hPa 0,0 l/m 0 min 0 min 18 W/m 6,4 km/h (2 Bft) 93,48 %
29.12.2018 10:16 4,3 C 3,9 C 3,3 C 97 % 1030,0 hPa 0,0 l/m 0 min 0 min 19 W/m 9,7 km/h (2 Bft) 95,74 %
29.12.2018 10:18 4,3 C 3,9 C 3,3 C 97 % 1030,1 hPa 0,0 l/m 0 min 0 min 19 W/m 3,2 km/h (1 Bft) 95,74 %
29.12.2018 10:20 4,3 C 3,9 C 3,3 C 97 % 1030,1 hPa 0,0 l/m 0 min 0 min 21 W/m 6,4 km/h (2 Bft) 97,87 %
29.12.2018 10:22 4,3 C 3,9 C 3,3 C 97 % 1030,1 hPa 0,0 l/m 0 min 0 min 23 W/m 16,1 km/h (3 Bft) 97,87 %
29.12.2018 10:24 4,3 C 3,9 C 3,3 C 97 % 1030,0 hPa 0,0 l/m 0 min 0 min 26 W/m 9,7 km/h (2 Bft) 95,74 %
29.12.2018 10:26 4,3 C 3,9 C 3,3 C 97 % 1030,0 hPa 0,0 l/m 0 min 0 min 26 W/m 6,4 km/h (2 Bft) 95,65 %
29.12.2018 10:28 4,3 C 3,9 C 3,3 C 97 % 1030,0 hPa 0,0 l/m 0 min 0 min 26 W/m 9,7 km/h (2 Bft) 95,74 %
29.12.2018 10:30 4,3 C 3,9 C 3,3 C 97 % 1030,1 hPa 0,0 l/m 0 min 0 min 25 W/m 9,7 km/h (2 Bft) 97,87 %
29.12.2018 10:32 4,4 C 3,9 C 3,3 C 97 % 1030,1 hPa 0,0 l/m 0 min 0 min 23 W/m 9,7 km/h (2 Bft) 97,87 %
29.12.2018 10:34 4,4 C 3,9 C 3,9 C 97 % 1030,0 hPa 0,0 l/m 0 min 0 min 23 W/m 9,7 km/h (2 Bft) 97,87 %
29.12.2018 10:36 4,4 C 3,9 C 3,9 C 97 % 1030,0 hPa 0,0 l/m 0 min 0 min 23 W/m 6,4 km/h (2 Bft) 97,87 %
29.12.2018 10:38 4,4 C 3,9 C 3,9 C 97 % 1030,0 hPa 0,0 l/m 0 min 0 min 23 W/m 12,9 km/h (3 Bft) 97,22 %
29.12.2018 10:40 4,4 C 4,4 C 3,9 C 97 % 1030,0 hPa 0,0 l/m 0 min 0 min 23 W/m 9,7 km/h (2 Bft) 97,92 %
29.12.2018 10:42 4,4 C 4,4 C 3,9 C 97 % 1029,9 hPa 0,0 l/m 0 min 0 min 23 W/m 6,4 km/h (2 Bft) 97,87 %
29.12.2018 10:44 4,4 C 4,4 C 3,9 C 97 % 1030,0 hPa 0,0 l/m 0 min 0 min 24 W/m 9,7 km/h (2 Bft) 95,74 %
29.12.2018 10:46 4,4 C 4,4 C 3,9 C 97 % 1029,8 hPa 0,0 l/m 0 min 0 min 27 W/m 19,3 km/h (3 Bft) 97,87 %
29.12.2018 10:48 4,5 C 4,4 C 3,9 C 97 % 1029,8 hPa 0,0 l/m 0 min 0 min 29 W/m 9,7 km/h (2 Bft) 97,87 %
29.12.2018 10:50 4,5 C 4,4 C 3,9 C 97 % 1029,7 hPa 0,0 l/m 0 min 0 min 30 W/m 16,1 km/h (3 Bft) 97,87 %
29.12.2018 10:52 4,5 C 4,4 C 3,9 C 97 % 1029,6 hPa 0,0 l/m 0 min 0 min 28 W/m 12,9 km/h (3 Bft) 97,83 %
29.12.2018 10:54 4,6 C 4,4 C 3,9 C 97 % 1029,6 hPa 0,0 l/m 0 min 0 min 28 W/m 9,7 km/h (2 Bft) 97,87 %
29.12.2018 10:56 4,6 C 4,4 C 3,9 C 97 % 1029,6 hPa 0,0 l/m 0 min 2 min 29 W/m 19,3 km/h (3 Bft) 95,74 %
29.12.2018 10:58 4,6 C 4,4 C 3,9 C 97 % 1029,5 hPa 0,0 l/m 0 min 0 min 33 W/m 22,5 km/h (4 Bft) 97,87 %
29.12.2018 11:00 4,6 C 4,4 C 3,9 C 97 % 1029,5 hPa 0,0 l/m 0 min 0 min 33 W/m 16,1 km/h (3 Bft) 100,00 %
29.12.2018 11:02 4,6 C 4,4 C 3,9 C 97 % 1029,5 hPa 0,0 l/m 0 min 0 min 35 W/m 19,3 km/h (3 Bft) 100,00 %
29.12.2018 11:04 4,6 C 4,4 C 3,9 C 97 % 1029,3 hPa 0,0 l/m 0 min 0 min 38 W/m 16,1 km/h (3 Bft) 100,00 %
29.12.2018 11:06 4,7 C 4,4 C 3,9 C 97 % 1029,3 hPa 0,0 l/m 0 min 0 min 40 W/m 22,5 km/h (4 Bft) 100,00 %
29.12.2018 11:08 4,7 C 4,4 C 3,9 C 97 % 1029,3 hPa 0,0 l/m 0 min 0 min 40 W/m 19,3 km/h (3 Bft) 100,00 %
29.12.2018 11:10 4,7 C 4,4 C 3,9 C 97 % 1029,4 hPa 0,0 l/m 0 min 0 min 42 W/m 25,7 km/h (4 Bft) 100,00 %
29.12.2018 11:12 4,7 C 4,4 C 3,9 C 97 % 1029,3 hPa 0,0 l/m 0 min 0 min 41 W/m 16,1 km/h (3 Bft) 100,00 %
29.12.2018 11:14 4,8 C 4,4 C 3,9 C 97 % 1029,2 hPa 0,0 l/m 0 min 0 min 42 W/m 16,1 km/h (3 Bft) 100,00 %
29.12.2018 11:16 4,8 C 4,4 C 3,9 C 97 % 1029,1 hPa 0,0 l/m 0 min 0 min 44 W/m 16,1 km/h (3 Bft) 100,00 %
29.12.2018 11:18 4,8 C 5,0 C 3,9 C 97 % 1029,1 hPa 0,0 l/m 0 min 0 min 47 W/m 19,3 km/h (3 Bft) 100,00 %
29.12.2018 11:20 4,8 C 5,0 C 3,9 C 97 % 1029,1 hPa 0,0 l/m 0 min 0 min 52 W/m 22,5 km/h (4 Bft) 97,87 %
29.12.2018 11:22 4,8 C 5,0 C 3,9 C 97 % 1029,0 hPa 0,0 l/m 0 min 0 min 53 W/m 16,1 km/h (3 Bft) 100,00 %
29.12.2018 11:24 4,9 C 5,0 C 4,4 C 97 % 1028,9 hPa 0,0 l/m 0 min 0 min 50 W/m 19,3 km/h (3 Bft) 100,00 %
29.12.2018 11:26 4,9 C 5,0 C 4,4 C 97 % 1029,0 hPa 0,0 l/m 0 min 0 min 51 W/m 16,1 km/h (3 Bft) 100,00 %
29.12.2018 11:28 4,9 C 5,0 C 4,4 C 97 % 1028,9 hPa 0,0 l/m 0 min 0 min 51 W/m 12,9 km/h (3 Bft) 100,00 %
29.12.2018 11:30 4,9 C 5,0 C 4,4 C 97 % 1028,9 hPa 0,0 l/m 0 min 0 min 58 W/m 19,3 km/h (3 Bft) 100,00 %
29.12.2018 11:32 5,0 C 5,0 C 4,4 C 96 % 1028,9 hPa 0,0 l/m 0 min 0 min 57 W/m 32,2 km/h (5 Bft) 100,00 %
29.12.2018 11:34 5,0 C 5,0 C 4,4 C 96 % 1028,9 hPa 0,0 l/m 0 min 0 min 59 W/m 12,9 km/h (3 Bft) 97,87 %
29.12.2018 11:36 5,1 C 5,0 C 4,4 C 96 % 1029,0 hPa 0,0 l/m 0 min 0 min 59 W/m 25,7 km/h (4 Bft) 97,87 %
29.12.2018 11:38 5,1 C 5,0 C 4,4 C 96 % 1029,0 hPa 0,0 l/m 0 min 0 min 58 W/m 12,9 km/h (3 Bft) 97,92 %
29.12.2018 11:40 5,1 C 5,0 C 4,4 C 96 % 1029,0 hPa 0,0 l/m 0 min 0 min 62 W/m 19,3 km/h (3 Bft) 97,92 %
29.12.2018 11:42 5,2 C 5,0 C 4,4 C 96 % 1029,0 hPa 0,0 l/m 0 min 0 min 65 W/m 25,7 km/h (4 Bft) 97,87 %
29.12.2018 11:44 5,2 C 5,0 C 4,4 C 96 % 1029,0 hPa 0,0 l/m 0 min 0 min 65 W/m 19,3 km/h (3 Bft) 97,87 %
29.12.2018 11:46 5,2 C 5,6 C 4,4 C 96 % 1029,0 hPa 0,0 l/m 0 min 0 min 72 W/m 19,3 km/h (3 Bft) 97,87 %
29.12.2018 11:48 5,2 C 5,6 C 4,4 C 96 % 1029,1 hPa 0,0 l/m 0 min 0 min 79 W/m 9,7 km/h (2 Bft) 97,83 %
29.12.2018 11:50 5,3 C 5,6 C 4,4 C 96 % 1029,0 hPa 0,0 l/m 0 min 0 min 74 W/m 12,9 km/h (3 Bft) 97,87 %
29.12.2018 11:52 5,3 C 5,6 C 5,0 C 96 % 1029,0 hPa 0,0 l/m 0 min 0 min 67 W/m 19,3 km/h (3 Bft) 97,87 %
29.12.2018 11:54 5,3 C 5,6 C 5,0 C 96 % 1029,0 hPa 0,0 l/m 0 min 0 min 63 W/m 12,9 km/h (3 Bft) 97,87 %
29.12.2018 11:56 5,4 C 5,6 C 5,0 C 96 % 1029,0 hPa 0,0 l/m 0 min 0 min 63 W/m 19,3 km/h (3 Bft) 97,87 %
29.12.2018 11:58 5,4 C 5,6 C 5,0 C 96 % 1029,1 hPa 0,0 l/m 0 min 0 min 65 W/m 12,9 km/h (3 Bft) 97,87 %
29.12.2018 12:00 5,4 C 5,6 C 5,0 C 96 % 1029,1 hPa 0,0 l/m 0 min 0 min 64 W/m 6,4 km/h (2 Bft) 97,83 %
29.12.2018 12:02 5,4 C 5,6 C 5,0 C 96 % 1029,0 hPa 0,0 l/m 0 min 0 min 63 W/m 12,9 km/h (3 Bft) 97,87 %
29.12.2018 12:04 5,5 C 5,6 C 5,0 C 96 % 1028,9 hPa 0,0 l/m 0 min 0 min 66 W/m 22,5 km/h (4 Bft) 93,62 %
29.12.2018 12:08 5,5 C 5,6 C 5,0 C 96 % 1028,5 hPa 0,0 l/m 0 min 0 min 66 W/m 22,5 km/h (4 Bft) 94,79 %
29.12.2018 12:10 5,6 C 5,6 C 5,0 C 95 % 1028,5 hPa 0,0 l/m 0 min 0 min 80 W/m 22,5 km/h (4 Bft) 95,74 %
29.12.2018 12:12 5,6 C 5,6 C 5,0 C 95 % 1028,5 hPa 0,0 l/m 0 min 0 min 82 W/m 16,1 km/h (3 Bft) 93,48 %
29.12.2018 12:14 5,6 C 5,6 C 5,0 C 95 % 1028,4 hPa 0,0 l/m 0 min 0 min 86 W/m 19,3 km/h (3 Bft) 95,74 %
29.12.2018 12:16 5,7 C 6,1 C 5,0 C 95 % 1028,4 hPa 0,0 l/m 0 min 0 min 100 W/m 12,9 km/h (3 Bft) 91,49 %
29.12.2018 12:18 5,7 C 6,1 C 5,6 C 95 % 1028,4 hPa 0,0 l/m 0 min 0 min 104 W/m 22,5 km/h (4 Bft) 95,74 %
29.12.2018 12:20 5,7 C 6,1 C 5,6 C 95 % 1028,4 hPa 0,0 l/m 0 min 0 min 102 W/m 16,1 km/h (3 Bft) 93,62 %
29.12.2018 12:22 5,8 C 6,1 C 5,6 C 95 % 1028,4 hPa 0,0 l/m 0 min 0 min 99 W/m 12,9 km/h (3 Bft) 93,62 %
29.12.2018 12:24 5,8 C 6,1 C 5,6 C 95 % 1028,4 hPa 0,0 l/m 0 min 0 min 93 W/m 22,5 km/h (4 Bft) 93,48 %
29.12.2018 12:26 5,9 C 6,1 C 5,6 C 95 % 1028,5 hPa 0,0 l/m 0 min 0 min 77 W/m 16,1 km/h (3 Bft) 89,36 %
29.12.2018 12:28 5,9 C 6,1 C 5,6 C 95 % 1028,6 hPa 0,0 l/m 0 min 0 min 67 W/m 16,1 km/h (3 Bft) 93,62 %
29.12.2018 12:30 5,9 C 6,1 C 5,6 C 95 % 1028,5 hPa 0,0 l/m 0 min 0 min 63 W/m 12,9 km/h (3 Bft) 95,74 %
29.12.2018 12:32 6,0 C 6,1 C 5,6 C 95 % 1028,4 hPa 0,0 l/m 0 min 0 min 63 W/m 19,3 km/h (3 Bft) 95,74 %
29.12.2018 12:34 6,0 C 6,1 C 5,6 C 95 % 1028,4 hPa 0,0 l/m 0 min 0 min 61 W/m 12,9 km/h (3 Bft) 95,74 %
29.12.2018 12:36 6,0 C 6,1 C 5,6 C 95 % 1028,4 hPa 0,0 l/m 0 min 0 min 51 W/m 12,9 km/h (3 Bft) 97,83 %
29.12.2018 12:38 6,1 C 6,1 C 5,6 C 95 % 1028,3 hPa 0,0 l/m 0 min 0 min 49 W/m 12,9 km/h (3 Bft) 95,83 %
29.12.2018 12:40 6,1 C 6,1 C 5,6 C 95 % 1028,4 hPa 0,0 l/m 0 min 0 min 47 W/m 12,9 km/h (3 Bft) 95,74 %
29.12.2018 12:42 6,1 C 6,1 C 5,6 C 95 % 1028,4 hPa 0,0 l/m 0 min 0 min 49 W/m 19,3 km/h (3 Bft) 95,74 %
29.12.2018 12:44 6,1 C 6,1 C 5,6 C 94 % 1028,4 hPa 0,0 l/m 0 min 0 min 52 W/m 25,7 km/h (4 Bft) 100,00 %
29.12.2018 12:46 6,1 C 6,1 C 5,6 C 94 % 1028,3 hPa 0,0 l/m 0 min 0 min 50 W/m 22,5 km/h (4 Bft) 97,83 %
29.12.2018 12:48 6,1 C 6,1 C 5,6 C 94 % 1028,2 hPa 0,0 l/m 0 min 0 min 53 W/m 22,5 km/h (4 Bft) 95,74 %
29.12.2018 12:50 6,2 C 6,1 C 5,6 C 94 % 1028,2 hPa 0,0 l/m 0 min 0 min 56 W/m 16,1 km/h (3 Bft) 97,87 %
29.12.2018 12:52 6,2 C 6,1 C 5,6 C 94 % 1028,1 hPa 0,0 l/m 0 min 0 min 81 W/m 16,1 km/h (3 Bft) 95,74 %
29.12.2018 12:54 6,2 C 6,1 C 5,6 C 94 % 1028,1 hPa 0,0 l/m 0 min 0 min 98 W/m 12,9 km/h (3 Bft) 97,87 %
29.12.2018 12:56 6,2 C 6,7 C 5,6 C 94 % 1028,0 hPa 0,0 l/m 0 min 0 min 111 W/m 32,2 km/h (5 Bft) 95,65 %
29.12.2018 12:58 6,2 C 6,7 C 5,6 C 94 % 1027,9 hPa 0,0 l/m 0 min 0 min 120 W/m 22,5 km/h (4 Bft) 97,87 %
29.12.2018 13:00 6,3 C 6,7 C 6,1 C 94 % 1027,9 hPa 0,0 l/m 0 min 0 min 121 W/m 16,1 km/h (3 Bft) 97,87 %
29.12.2018 13:02 6,3 C 6,7 C 6,1 C 94 % 1027,8 hPa 0,0 l/m 0 min 0 min 125 W/m 22,5 km/h (4 Bft) 100,00 %
29.12.2018 13:04 6,4 C 6,7 C 6,1 C 94 % 1027,8 hPa 0,0 l/m 0 min 0 min 126 W/m 19,3 km/h (3 Bft) 100,00 %
29.12.2018 13:06 6,4 C 6,7 C 6,1 C 94 % 1027,9 hPa 0,0 l/m 0 min 0 min 116 W/m 16,1 km/h (3 Bft) 100,00 %
29.12.2018 13:08 6,4 C 6,7 C 6,1 C 94 % 1028,0 hPa 0,0 l/m 0 min 0 min 98 W/m 35,4 km/h (5 Bft) 97,83 %
29.12.2018 13:10 6,4 C 6,7 C 6,1 C 94 % 1028,1 hPa 0,0 l/m 0 min 0 min 81 W/m 29,0 km/h (5 Bft) 97,62 %
29.12.2018 13:12 6,4 C 6,7 C 6,1 C 93 % 1028,1 hPa 0,0 l/m 0 min 0 min 69 W/m 25,7 km/h (4 Bft) 100,00 %
29.12.2018 13:14 6,5 C 6,7 C 5,6 C 93 % 1028,0 hPa 0,0 l/m 0 min 0 min 63 W/m 16,1 km/h (3 Bft) 95,74 %
29.12.2018 13:16 6,5 C 6,7 C 5,6 C 93 % 1027,9 hPa 0,0 l/m 0 min 0 min 67 W/m 19,3 km/h (3 Bft) 97,87 %
29.12.2018 13:18 6,5 C 6,7 C 5,6 C 93 % 1027,9 hPa 0,0 l/m 0 min 0 min 73 W/m 16,1 km/h (3 Bft) 97,87 %
29.12.2018 13:20 6,6 C 6,7 C 6,1 C 93 % 1028,0 hPa 0,0 l/m 0 min 0 min 84 W/m 16,1 km/h (3 Bft) 95,74 %
29.12.2018 13:22 6,6 C 6,7 C 6,1 C 93 % 1028,0 hPa 0,0 l/m 0 min 0 min 87 W/m 22,5 km/h (4 Bft) 95,74 %
29.12.2018 13:24 6,6 C 6,7 C 6,1 C 93 % 1027,9 hPa 0,0 l/m 0 min 0 min 70 W/m 22,5 km/h (4 Bft) 97,83 %
29.12.2018 13:26 6,6 C 6,7 C 6,1 C 93 % 1027,9 hPa 0,0 l/m 0 min 0 min 67 W/m 22,5 km/h (4 Bft) 93,62 %
29.12.2018 13:28 6,6 C 6,7 C 6,1 C 93 % 1027,7 hPa 0,0 l/m 0 min 0 min 63 W/m 19,3 km/h (3 Bft) 97,87 %
29.12.2018 13:30 6,6 C 6,7 C 6,1 C 93 % 1027,5 hPa 0,0 l/m 0 min 0 min 70 W/m 29,0 km/h (5 Bft) 97,87 %
29.12.2018 13:32 6,6 C 6,7 C 6,1 C 92 % 1027,4 hPa 0,0 l/m 0 min 0 min 77 W/m 25,7 km/h (4 Bft) 97,87 %
29.12.2018 13:34 6,6 C 6,7 C 6,1 C 92 % 1027,3 hPa 0,0 l/m 0 min 0 min 78 W/m 19,3 km/h (3 Bft) 97,87 %
29.12.2018 13:36 6,6 C 6,7 C 6,1 C 92 % 1027,4 hPa 0,0 l/m 0 min 0 min 77 W/m 16,1 km/h (3 Bft) 98,28 %
29.12.2018 13:38 6,7 C 6,7 C 6,1 C 92 % 1027,4 hPa 0,0 l/m 0 min 0 min 78 W/m 29,0 km/h (5 Bft) 97,22 %
29.12.2018 13:40 6,7 C 6,7 C 6,1 C 92 % 1027,3 hPa 0,0 l/m 0 min 0 min 72 W/m 25,7 km/h (4 Bft) 98,00 %
29.12.2018 13:42 6,7 C 6,7 C 6,1 C 92 % 1027,2 hPa 0,0 l/m 0 min 0 min 72 W/m 16,1 km/h (3 Bft) 95,74 %
29.12.2018 13:44 6,7 C 6,7 C 6,1 C 92 % 1027,4 hPa 0,0 l/m 0 min 0 min 66 W/m 9,7 km/h (2 Bft) 97,87 %
29.12.2018 13:46 6,7 C 6,7 C 6,1 C 92 % 1027,4 hPa 0,0 l/m 0 min 0 min 61 W/m 32,2 km/h (5 Bft) 97,83 %
29.12.2018 13:48 6,7 C 6,7 C 6,1 C 92 % 1027,3 hPa 0,0 l/m 0 min 0 min 59 W/m 19,3 km/h (3 Bft) 97,87 %
29.12.2018 13:50 6,7 C 6,7 C 5,6 C 91 % 1027,3 hPa 0,0 l/m 0 min 0 min 56 W/m 22,5 km/h (4 Bft) 93,62 %
29.12.2018 13:52 6,7 C 6,7 C 5,6 C 92 % 1027,2 hPa 0,0 l/m 0 min 0 min 56 W/m 22,5 km/h (4 Bft) 97,87 %
29.12.2018 13:54 6,7 C 6,7 C 5,6 C 91 % 1027,2 hPa 0,0 l/m 0 min 0 min 56 W/m 22,5 km/h (4 Bft) 97,92 %
29.12.2018 13:56 6,7 C 6,7 C 5,6 C 91 % 1027,1 hPa 0,0 l/m 0 min 0 min 58 W/m 25,7 km/h (4 Bft) 97,87 %
29.12.2018 13:58 6,7 C 6,7 C 5,6 C 91 % 1027,3 hPa 0,0 l/m 0 min 0 min 54 W/m 19,3 km/h (3 Bft) 97,83 %
29.12.2018 14:00 6,7 C 6,7 C 5,6 C 91 % 1027,3 hPa 0,0 l/m 0 min 0 min 51 W/m 12,9 km/h (3 Bft) 97,87 %
29.12.2018 14:02 6,7 C 6,7 C 6,1 C 91 % 1027,4 hPa 0,0 l/m 0 min 0 min 50 W/m 16,1 km/h (3 Bft) 97,87 %
29.12.2018 14:04 6,7 C 6,7 C 5,6 C 91 % 1027,4 hPa 0,0 l/m 0 min 0 min 49 W/m 12,9 km/h (3 Bft) 97,87 %
29.12.2018 14:06 6,7 C 6,7 C 5,6 C 91 % 1027,3 hPa 0,0 l/m 0 min 0 min 49 W/m 9,7 km/h (2 Bft) 97,87 %
29.12.2018 14:08 6,7 C 6,7 C 6,1 C 91 % 1027,4 hPa 0,0 l/m 0 min 0 min 48 W/m 16,1 km/h (3 Bft) 95,74 %
29.12.2018 14:10 6,7 C 6,7 C 5,6 C 91 % 1027,4 hPa 0,0 l/m 0 min 0 min 46 W/m 25,7 km/h (4 Bft) 100,00 %
29.12.2018 14:12 6,7 C 6,7 C 5,6 C 91 % 1027,3 hPa 0,0 l/m 0 min 0 min 46 W/m 19,3 km/h (3 Bft) 100,00 %
29.12.2018 14:14 6,7 C 6,7 C 5,6 C 91 % 1027,2 hPa 0,0 l/m 0 min 0 min 47 W/m 16,1 km/h (3 Bft) 100,00 %
29.12.2018 14:16 6,7 C 6,1 C 5,6 C 91 % 1027,0 hPa 0,0 l/m 0 min 0 min 48 W/m 29,0 km/h (5 Bft) 100,00 %
29.12.2018 14:18 6,7 C 6,1 C 5,6 C 91 % 1026,9 hPa 0,0 l/m 0 min 0 min 47 W/m 22,5 km/h (4 Bft) 100,00 %
29.12.2018 14:20 6,7 C 6,1 C 5,6 C 91 % 1026,9 hPa 0,0 l/m 0 min 0 min 46 W/m 29,0 km/h (5 Bft) 97,87 %
29.12.2018 14:22 6,7 C 6,1 C 5,6 C 91 % 1027,0 hPa 0,0 l/m 0 min 0 min 45 W/m 22,5 km/h (4 Bft) 100,00 %
29.12.2018 14:24 6,7 C 6,1 C 5,6 C 91 % 1027,1 hPa 0,0 l/m 0 min 0 min 40 W/m 19,3 km/h (3 Bft) 97,87 %
29.12.2018 14:26 6,7 C 6,1 C 5,6 C 91 % 1027,2 hPa 0,0 l/m 0 min 0 min 35 W/m 9,7 km/h (2 Bft) 100,00 %
29.12.2018 14:28 6,7 C 6,1 C 5,6 C 91 % 1027,2 hPa 0,0 l/m 0 min 0 min 33 W/m 12,9 km/h (3 Bft) 100,00 %
29.12.2018 14:30 6,7 C 6,1 C 5,6 C 91 % 1027,1 hPa 0,0 l/m 0 min 0 min 29 W/m 16,1 km/h (3 Bft) 97,83 %
29.12.2018 14:32 6,7 C 6,1 C 5,6 C 91 % 1027,2 hPa 0,0 l/m 0 min 0 min 26 W/m 22,5 km/h (4 Bft) 97,87 %
29.12.2018 14:34 6,7 C 6,1 C 5,6 C 91 % 1027,2 hPa 0,0 l/m 0 min 0 min 25 W/m 19,3 km/h (3 Bft) 97,87 %
29.12.2018 14:36 6,7 C 6,1 C 5,6 C 91 % 1027,2 hPa 0,0 l/m 0 min 0 min 20 W/m 16,1 km/h (3 Bft) 97,87 %
29.12.2018 14:38 6,7 C 6,1 C 5,6 C 91 % 1027,1 hPa 0,0 l/m 0 min 0 min 22 W/m 29,0 km/h (5 Bft) 97,14 %
29.12.2018 14:40 6,7 C 6,1 C 5,6 C 91 % 1027,1 hPa 0,0 l/m 0 min 0 min 22 W/m 29,0 km/h (5 Bft) 94,55 %
29.12.2018 14:42 6,7 C 6,1 C 5,6 C 91 % 1027,1 hPa 0,0 l/m 0 min 0 min 21 W/m 22,5 km/h (4 Bft) 95,74 %
29.12.2018 14:44 6,7 C 6,1 C 5,6 C 91 % 1027,0 hPa 0,0 l/m 0 min 0 min 18 W/m 22,5 km/h (4 Bft) 95,74 %
29.12.2018 14:46 6,7 C 6,1 C 5,6 C 91 % 1026,9 hPa 0,0 l/m 0 min 0 min 18 W/m 22,5 km/h (4 Bft) 95,65 %
29.12.2018 14:48 6,7 C 6,1 C 5,6 C 91 % 1026,7 hPa 0,0 l/m 0 min 0 min 19 W/m 25,7 km/h (4 Bft) 95,74 %
29.12.2018 14:50 6,7 C 6,1 C 5,6 C 91 % 1026,7 hPa 0,0 l/m 0 min 0 min 18 W/m 16,1 km/h (3 Bft) 95,74 %
29.12.2018 14:52 6,7 C 6,1 C 5,6 C 91 % 1026,5 hPa 0,0 l/m 0 min 0 min 16 W/m 25,7 km/h (4 Bft) 95,74 %
29.12.2018 14:54 6,7 C 6,1 C 5,6 C 91 % 1026,5 hPa 0,0 l/m 0 min 0 min 19 W/m 12,9 km/h (3 Bft) 93,62 %
29.12.2018 14:56 6,7 C 6,1 C 5,6 C 91 % 1026,4 hPa 0,0 l/m 0 min 0 min 21 W/m 19,3 km/h (3 Bft) 93,62 %
29.12.2018 14:58 6,6 C 6,1 C 5,6 C 91 % 1026,4 hPa 0,0 l/m 0 min 0 min 19 W/m 32,2 km/h (5 Bft) 93,48 %
29.12.2018 15:00 6,6 C 6,1 C 5,6 C 91 % 1026,4 hPa 0,0 l/m 0 min 0 min 16 W/m 25,7 km/h (4 Bft) 93,62 %
29.12.2018 15:02 6,6 C 6,1 C 5,6 C 91 % 1026,4 hPa 0,0 l/m 0 min 0 min 16 W/m 29,0 km/h (5 Bft) 95,24 %
29.12.2018 15:04 6,6 C 6,1 C 5,6 C 91 % 1026,2 hPa 0,0 l/m 0 min 0 min 18 W/m 25,7 km/h (4 Bft) 97,87 %
29.12.2018 15:06 6,6 C 6,1 C 5,6 C 91 % 1026,3 hPa 0,0 l/m 0 min 0 min 14 W/m 22,5 km/h (4 Bft) 93,62 %
29.12.2018 15:08 6,6 C 6,1 C 5,6 C 91 % 1026,3 hPa 0,0 l/m 0 min 0 min 11 W/m 25,7 km/h (4 Bft) 95,65 %
29.12.2018 15:10 6,6 C 6,1 C 5,6 C 92 % 1026,2 hPa 0,0 l/m 0 min 0 min 11 W/m 32,2 km/h (5 Bft) 94,55 %
29.12.2018 15:12 6,6 C 6,1 C 5,6 C 92 % 1026,0 hPa 0,0 l/m 0 min 0 min 12 W/m 25,7 km/h (4 Bft) 95,74 %
29.12.2018 15:14 6,5 C 6,1 C 5,6 C 92 % 1026,0 hPa 0,0 l/m 0 min 0 min 12 W/m 22,5 km/h (4 Bft) 97,87 %
29.12.2018 15:16 6,5 C 6,1 C 5,6 C 92 % 1026,0 hPa 0,0 l/m 0 min 0 min 12 W/m 29,0 km/h (5 Bft) 97,87 %
29.12.2018 15:18 6,5 C 6,1 C 5,6 C 92 % 1026,1 hPa 0,0 l/m 0 min 0 min 10 W/m 32,2 km/h (5 Bft) 97,87 %
29.12.2018 15:20 6,5 C 6,1 C 5,6 C 92 % 1026,1 hPa 0,0 l/m 0 min 0 min 9 W/m 29,0 km/h (5 Bft) 95,65 %
29.12.2018 15:22 6,5 C 6,1 C 5,6 C 92 % 1026,1 hPa 0,0 l/m 0 min 0 min 10 W/m 29,0 km/h (5 Bft) 97,87 %
29.12.2018 15:24 6,5 C 6,1 C 5,6 C 92 % 1026,1 hPa 0,2 l/m 0 min 0 min 9 W/m 22,5 km/h (4 Bft) 95,74 %
29.12.2018 15:26 6,5 C 6,1 C 5,6 C 92 % 1026,2 hPa 0,0 l/m 0 min 0 min 10 W/m 22,5 km/h (4 Bft) 95,74 %
29.12.2018 15:28 6,5 C 6,1 C 5,6 C 92 % 1026,2 hPa 0,0 l/m 0 min 0 min 12 W/m 16,1 km/h (3 Bft) 97,87 %
29.12.2018 15:30 6,5 C 6,1 C 5,6 C 92 % 1026,1 hPa 0,0 l/m 0 min 0 min 13 W/m 22,5 km/h (4 Bft) 95,74 %
29.12.2018 15:32 6,5 C 6,1 C 5,6 C 92 % 1026,0 hPa 0,0 l/m 0 min 0 min 15 W/m 25,7 km/h (4 Bft) 97,83 %
29.12.2018 15:34 6,5 C 6,1 C 5,6 C 93 % 1025,9 hPa 0,0 l/m 0 min 0 min 15 W/m 22,5 km/h (4 Bft) 97,87 %
29.12.2018 15:36 6,4 C 6,1 C 5,6 C 93 % 1025,9 hPa 0,0 l/m 0 min 0 min 13 W/m 22,5 km/h (4 Bft) 97,87 %
29.12.2018 15:38 6,4 C 6,1 C 5,6 C 93 % 1025,9 hPa 0,0 l/m 0 min 0 min 11 W/m 16,1 km/h (3 Bft) 98,00 %
29.12.2018 15:40 6,4 C 5,6 C 5,0 C 93 % 1026,0 hPa 0,0 l/m 0 min 0 min 9 W/m 16,1 km/h (3 Bft) 100,00 %
29.12.2018 15:42 6,4 C 5,6 C 5,0 C 93 % 1025,9 hPa 0,0 l/m 0 min 0 min 9 W/m 25,7 km/h (4 Bft) 97,87 %
29.12.2018 15:44 6,4 C 5,6 C 5,0 C 93 % 1025,9 hPa 0,0 l/m 0 min 0 min 7 W/m 22,5 km/h (4 Bft) 97,83 %
29.12.2018 15:46 6,4 C 5,6 C 5,0 C 93 % 1025,9 hPa 0,0 l/m 0 min 0 min 8 W/m 25,7 km/h (4 Bft) 100,00 %
29.12.2018 15:48 6,4 C 6,1 C 5,0 C 93 % 1025,9 hPa 0,0 l/m 0 min 0 min 7 W/m 19,3 km/h (3 Bft) 97,87 %
29.12.2018 15:50 6,4 C 6,1 C 5,6 C 93 % 1025,8 hPa 0,0 l/m 0 min 0 min 6 W/m 25,7 km/h (4 Bft) 100,00 %
29.12.2018 15:52 6,4 C 6,1 C 5,6 C 93 % 1025,8 hPa 0,0 l/m 0 min 0 min 8 W/m 29,0 km/h (5 Bft) 100,00 %
29.12.2018 15:54 6,4 C 6,1 C 5,6 C 93 % 1025,7 hPa 0,0 l/m 0 min 0 min 7 W/m 16,1 km/h (3 Bft) 95,65 %
29.12.2018 15:56 6,4 C 6,1 C 5,6 C 93 % 1025,7 hPa 0,0 l/m 0 min 0 min 8 W/m 29,0 km/h (5 Bft) 100,00 %
29.12.2018 15:58 6,4 C 6,1 C 5,6 C 93 % 1025,6 hPa 0,0 l/m 0 min 0 min 8 W/m 25,7 km/h (4 Bft) 97,87 %
29.12.2018 16:00 6,4 C 6,1 C 5,6 C 93 % 1025,5 hPa 0,0 l/m 0 min 0 min 9 W/m 29,0 km/h (5 Bft) 97,87 %
29.12.2018 16:02 6,4 C 6,1 C 5,6 C 93 % 1025,4 hPa 0,0 l/m 0 min 0 min 9 W/m 22,5 km/h (4 Bft) 97,87 %
29.12.2018 16:04 6,4 C 6,1 C 5,6 C 93 % 1025,6 hPa 0,0 l/m 0 min 0 min 6 W/m 25,7 km/h (4 Bft) 97,87 %
29.12.2018 16:06 6,4 C 5,6 C 5,0 C 93 % 1025,4 hPa 0,0 l/m 0 min 0 min 7 W/m 29,0 km/h (5 Bft) 94,83 %
29.12.2018 16:08 6,4 C 5,6 C 5,0 C 93 % 1025,4 hPa 0,0 l/m 0 min 0 min 5 W/m 29,0 km/h (5 Bft) 100,00 %
29.12.2018 16:10 6,4 C 5,6 C 5,0 C 93 % 1025,4 hPa 0,0 l/m 0 min 0 min 5 W/m 25,7 km/h (4 Bft) 95,74 %
29.12.2018 16:12 6,4 C 5,6 C 5,0 C 93 % 1025,3 hPa 0,0 l/m 0 min 0 min 5 W/m 19,3 km/h (3 Bft) 97,87 %
29.12.2018 16:14 6,3 C 5,6 C 5,0 C 93 % 1025,4 hPa 0,0 l/m 0 min 0 min 0 W/m 16,1 km/h (3 Bft) 97,87 %
29.12.2018 16:16 6,3 C 5,6 C 5,0 C 93 % 1025,5 hPa 0,0 l/m 0 min 0 min 0 W/m 22,5 km/h (4 Bft) 100,00 %
29.12.2018 16:18 6,3 C 5,6 C 5,0 C 93 % 1025,5 hPa 0,0 l/m 0 min 0 min 0 W/m 22,5 km/h (4 Bft) 95,65 %
29.12.2018 16:20 6,3 C 5,6 C 5,0 C 93 % 1025,4 hPa 0,0 l/m 0 min 0 min 0 W/m 16,1 km/h (3 Bft) 97,87 %
29.12.2018 16:22 6,3 C 5,6 C 5,0 C 93 % 1025,5 hPa 0,0 l/m 0 min 0 min 0 W/m 19,3 km/h (3 Bft) 91,49 %
29.12.2018 16:24 6,3 C 5,6 C 5,0 C 93 % 1025,6 hPa 0,0 l/m 0 min 0 min 0 W/m 19,3 km/h (3 Bft) 97,87 %
29.12.2018 16:26 6,3 C 5,6 C 5,0 C 93 % 1025,6 hPa 0,0 l/m 0 min 2 min 0 W/m 19,3 km/h (3 Bft) 95,74 %
29.12.2018 16:28 6,3 C 5,0 C 5,0 C 94 % 1025,7 hPa 0,0 l/m 0 min 2 min 0 W/m 12,9 km/h (3 Bft) 97,87 %
29.12.2018 16:30 6,3 C 5,0 C 5,0 C 94 % 1025,8 hPa 0,0 l/m 0 min 2 min 0 W/m 12,9 km/h (3 Bft) 97,83 %
29.12.2018 16:32 6,3 C 5,0 C 4,4 C 94 % 1025,7 hPa 0,0 l/m 0 min 2 min 0 W/m 12,9 km/h (3 Bft) 97,87 %
29.12.2018 16:34 6,3 C 5,0 C 4,4 C 94 % 1025,6 hPa 0,0 l/m 0 min 2 min 0 W/m 12,9 km/h (3 Bft) 97,87 %
29.12.2018 16:36 6,3 C 5,0 C 4,4 C 94 % 1025,6 hPa 0,0 l/m 0 min 2 min 0 W/m 16,1 km/h (3 Bft) 97,87 %
29.12.2018 16:38 6,3 C 5,0 C 4,4 C 94 % 1025,8 hPa 0,0 l/m 0 min 2 min 0 W/m 16,1 km/h (3 Bft) 93,62 %
29.12.2018 16:40 6,3 C 5,0 C 4,4 C 94 % 1025,8 hPa 0,2 l/m 0 min 2 min 0 W/m 19,3 km/h (3 Bft) 96,36 %
29.12.2018 16:42 6,2 C 5,0 C 4,4 C 94 % 1025,8 hPa 0,2 l/m 0 min 2 min 0 W/m 12,9 km/h (3 Bft) 95,65 %
29.12.2018 16:44 6,2 C 5,0 C 4,4 C 94 % 1026,0 hPa 0,0 l/m 0 min 2 min 0 W/m 16,1 km/h (3 Bft) 97,87 %
29.12.2018 16:46 6,2 C 5,0 C 4,4 C 94 % 1026,0 hPa 0,0 l/m 0 min 2 min 0 W/m 19,3 km/h (3 Bft) 95,74 %
29.12.2018 16:48 6,2 C 5,0 C 4,4 C 94 % 1026,1 hPa 0,0 l/m 0 min 0 min 0 W/m 19,3 km/h (3 Bft) 97,87 %
29.12.2018 16:50 6,2 C 5,0 C 4,4 C 94 % 1026,1 hPa 0,0 l/m 0 min 2 min 0 W/m 16,1 km/h (3 Bft) 100,00 %
29.12.2018 16:52 6,2 C 5,0 C 4,4 C 94 % 1026,0 hPa 0,0 l/m 0 min 2 min 0 W/m 12,9 km/h (3 Bft) 95,65 %
29.12.2018 16:54 6,2 C 5,0 C 4,4 C 95 % 1026,0 hPa 0,0 l/m 0 min 2 min 0 W/m 12,9 km/h (3 Bft) 97,87 %
29.12.2018 16:56 6,2 C 5,0 C 4,4 C 95 % 1026,0 hPa 0,0 l/m 0 min 0 min 0 W/m 19,3 km/h (3 Bft) 97,87 %
29.12.2018 16:58 6,2 C 5,0 C 4,4 C 95 % 1025,8 hPa 0,0 l/m 0 min 0 min 0 W/m 12,9 km/h (3 Bft) 97,87 %
29.12.2018 17:00 6,2 C 5,0 C 4,4 C 95 % 1025,9 hPa 0,2 l/m 0 min 2 min 0 W/m 12,9 km/h (3 Bft) 97,87 %
29.12.2018 17:02 6,2 C 5,0 C 4,4 C 95 % 1026,0 hPa 0,0 l/m 0 min 2 min 0 W/m 16,1 km/h (3 Bft) 93,62 %
29.12.2018 17:04 6,2 C 5,0 C 4,4 C 95 % 1026,1 hPa 0,0 l/m 0 min 2 min 0 W/m 16,1 km/h (3 Bft) 95,74 %
29.12.2018 17:06 6,2 C 5,0 C 4,4 C 95 % 1026,0 hPa 0,0 l/m 0 min 0 min 0 W/m 16,1 km/h (3 Bft) 95,65 %
29.12.2018 17:08 6,2 C 5,0 C 4,4 C 95 % 1026,0 hPa 0,0 l/m 0 min 0 min 0 W/m 9,7 km/h (2 Bft) 96,00 %
29.12.2018 17:10 6,2 C 5,0 C 4,4 C 95 % 1026,0 hPa 0,0 l/m 0 min 0 min 0 W/m 9,7 km/h (2 Bft) 97,87 %
29.12.2018 17:12 6,2 C 5,0 C 4,4 C 95 % 1025,8 hPa 0,0 l/m 0 min 0 min 0 W/m 16,1 km/h (3 Bft) 97,87 %
29.12.2018 17:14 6,2 C 5,0 C 4,4 C 95 % 1025,8 hPa 0,0 l/m 0 min 0 min 0 W/m 16,1 km/h (3 Bft) 97,83 %
29.12.2018 17:16 6,2 C 5,0 C 4,4 C 95 % 1025,9 hPa 0,0 l/m 0 min 0 min 0 W/m 16,1 km/h (3 Bft) 95,74 %
29.12.2018 17:18 6,2 C 5,0 C 4,4 C 95 % 1025,9 hPa 0,0 l/m 0 min 0 min 0 W/m 12,9 km/h (3 Bft) 97,87 %
29.12.2018 17:20 6,2 C 5,0 C 4,4 C 95 % 1025,9 hPa 0,0 l/m 0 min 2 min 0 W/m 22,5 km/h (4 Bft) 97,87 %
29.12.2018 17:22 6,2 C 5,0 C 4,4 C 96 % 1025,8 hPa 0,0 l/m 0 min 0 min 0 W/m 19,3 km/h (3 Bft) 97,87 %
29.12.2018 17:24 6,2 C 5,0 C 4,4 C 96 % 1025,8 hPa 0,0 l/m 0 min 0 min 0 W/m 16,1 km/h (3 Bft) 97,87 %
29.12.2018 17:26 6,2 C 5,0 C 4,4 C 96 % 1025,8 hPa 0,0 l/m 0 min 0 min 0 W/m 12,9 km/h (3 Bft) 97,83 %
29.12.2018 17:28 6,2 C 5,0 C 4,4 C 96 % 1025,8 hPa 0,0 l/m 0 min 0 min 0 W/m 19,3 km/h (3 Bft) 97,87 %
29.12.2018 17:30 6,2 C 5,0 C 4,4 C 96 % 1025,7 hPa 0,0 l/m 0 min 0 min 0 W/m 19,3 km/h (3 Bft) 97,87 %
29.12.2018 17:32 6,2 C 5,0 C 4,4 C 96 % 1025,7 hPa 0,0 l/m 0 min 0 min 0 W/m 16,1 km/h (3 Bft) 95,74 %
29.12.2018 17:34 6,1 C 5,0 C 4,4 C 96 % 1025,8 hPa 0,0 l/m 0 min 0 min 0 W/m 25,7 km/h (4 Bft) 97,87 %
29.12.2018 17:36 6,2 C 5,0 C 4,4 C 96 % 1025,8 hPa 0,2 l/m 0 min 0 min 0 W/m 16,1 km/h (3 Bft) 95,74 %
29.12.2018 17:38 6,1 C 5,0 C 4,4 C 96 % 1025,6 hPa 0,0 l/m 0 min 0 min 0 W/m 22,5 km/h (4 Bft) 97,22 %
29.12.2018 17:40 6,1 C 5,0 C 4,4 C 96 % 1025,7 hPa 0,0 l/m 0 min 0 min 0 W/m 29,0 km/h (5 Bft) 95,65 %
29.12.2018 17:42 6,1 C 5,0 C 4,4 C 96 % 1025,7 hPa 0,0 l/m 0 min 0 min 0 W/m 16,1 km/h (3 Bft) 95,74 %
29.12.2018 17:44 6,1 C 5,0 C 4,4 C 96 % 1025,6 hPa 0,0 l/m 0 min 0 min 0 W/m 12,9 km/h (3 Bft) 97,87 %
29.12.2018 17:46 6,1 C 5,0 C 4,4 C 96 % 1025,5 hPa 0,0 l/m 0 min 0 min 0 W/m 16,1 km/h (3 Bft) 95,74 %
29.12.2018 17:48 6,1 C 5,0 C 4,4 C 96 % 1025,4 hPa 0,0 l/m 0 min 0 min 0 W/m 22,5 km/h (4 Bft) 97,87 %
29.12.2018 17:50 6,1 C 5,0 C 4,4 C 96 % 1025,3 hPa 0,0 l/m 0 min 0 min 0 W/m 16,1 km/h (3 Bft) 100,00 %
29.12.2018 17:52 6,1 C 5,0 C 4,4 C 96 % 1025,3 hPa 0,0 l/m 0 min 0 min 0 W/m 22,5 km/h (4 Bft) 97,83 %
29.12.2018 17:54 6,1 C 5,0 C 4,4 C 96 % 1025,3 hPa 0,0 l/m 0 min 0 min 0 W/m 25,7 km/h (4 Bft) 97,87 %
29.12.2018 17:56 6,1 C 5,0 C 4,4 C 96 % 1025,1 hPa 0,0 l/m 0 min 0 min 0 W/m 29,0 km/h (5 Bft) 100,00 %
29.12.2018 17:58 6,1 C 5,0 C 4,4 C 96 % 1025,1 hPa 0,0 l/m 0 min 0 min 0 W/m 16,1 km/h (3 Bft) 100,00 %
29.12.2018 18:00 6,1 C 5,6 C 4,4 C 96 % 1025,1 hPa 0,0 l/m 0 min 0 min 0 W/m 16,1 km/h (3 Bft) 100,00 %
29.12.2018 18:02 6,1 C 5,6 C 4,4 C 96 % 1025,1 hPa 0,0 l/m 0 min 0 min 0 W/m 29,0 km/h (5 Bft) 95,74 %
29.12.2018 18:04 6,1 C 5,6 C 4,4 C 97 % 1025,1 hPa 0,0 l/m 0 min 0 min 0 W/m 19,3 km/h (3 Bft) 97,83 %
29.12.2018 18:08 6,1 C 5,6 C 5,0 C 97 % 1025,1 hPa 0,0 l/m 0 min 0 min 0 W/m 22,5 km/h (4 Bft) 97,87 %
29.12.2018 18:10 6,1 C 5,6 C 5,0 C 97 % 1025,0 hPa 0,0 l/m 0 min 0 min 0 W/m 19,3 km/h (3 Bft) 97,87 %
29.12.2018 18:12 6,1 C 5,6 C 5,0 C 97 % 1025,0 hPa 0,0 l/m 0 min 0 min 0 W/m 25,7 km/h (4 Bft) 97,87 %
29.12.2018 18:14 6,1 C 5,6 C 5,0 C 97 % 1025,0 hPa 0,0 l/m 0 min 0 min 0 W/m 16,1 km/h (3 Bft) 86,96 %
29.12.2018 18:16 6,1 C 5,6 C 5,0 C 97 % 1025,1 hPa 0,0 l/m 0 min 0 min 0 W/m 25,7 km/h (4 Bft) 91,49 %
29.12.2018 18:18 6,2 C 5,6 C 5,0 C 97 % 1025,0 hPa 0,0 l/m 0 min 0 min 0 W/m 38,6 km/h (5 Bft) 93,62 %
29.12.2018 18:20 6,2 C 5,6 C 5,0 C 97 % 1024,9 hPa 0,0 l/m 0 min 0 min 0 W/m 22,5 km/h (4 Bft) 97,87 %
29.12.2018 18:22 6,2 C 5,6 C 5,0 C 97 % 1025,1 hPa 0,0 l/m 0 min 0 min 0 W/m 35,4 km/h (5 Bft) 97,87 %
29.12.2018 18:24 6,2 C 5,6 C 5,0 C 97 % 1025,0 hPa 0,0 l/m 0 min 0 min 0 W/m 16,1 km/h (3 Bft) 97,87 %
29.12.2018 18:26 6,2 C 5,6 C 5,0 C 97 % 1024,9 hPa 0,0 l/m 0 min 0 min 0 W/m 22,5 km/h (4 Bft) 97,83 %
29.12.2018 18:28 6,2 C 5,6 C 5,0 C 97 % 1025,0 hPa 0,0 l/m 0 min 0 min 0 W/m 19,3 km/h (3 Bft) 97,87 %
29.12.2018 18:30 6,2 C 5,6 C 5,0 C 97 % 1025,0 hPa 0,0 l/m 0 min 0 min 0 W/m 25,7 km/h (4 Bft) 95,74 %
29.12.2018 18:32 6,2 C 5,6 C 5,0 C 97 % 1025,1 hPa 0,0 l/m 0 min 0 min 0 W/m 32,2 km/h (5 Bft) 95,74 %
29.12.2018 18:34 6,2 C 5,6 C 5,0 C 97 % 1025,0 hPa 0,0 l/m 0 min 0 min 0 W/m 29,0 km/h (5 Bft) 97,87 %
29.12.2018 18:36 6,3 C 5,6 C 5,0 C 97 % 1025,0 hPa 0,0 l/m 0 min 0 min 0 W/m 12,9 km/h (3 Bft) 97,87 %
29.12.2018 18:38 6,3 C 5,6 C 5,0 C 97 % 1024,9 hPa 0,0 l/m 0 min 0 min 0 W/m 19,3 km/h (3 Bft) 97,83 %
29.12.2018 18:40 6,3 C 5,6 C 5,0 C 97 % 1024,9 hPa 0,0 l/m 0 min 0 min 0 W/m 19,3 km/h (3 Bft) 98,00 %
29.12.2018 18:42 6,3 C 5,6 C 5,0 C 97 % 1025,0 hPa 0,0 l/m 0 min 0 min 0 W/m 25,7 km/h (4 Bft) 97,87 %
29.12.2018 18:44 6,3 C 5,6 C 5,0 C 97 % 1024,9 hPa 0,0 l/m 0 min 0 min 0 W/m 16,1 km/h (3 Bft) 97,87 %
29.12.2018 18:46 6,3 C 5,6 C 5,0 C 97 % 1024,9 hPa 0,0 l/m 0 min 0 min 0 W/m 25,7 km/h (4 Bft) 97,87 %
29.12.2018 18:48 6,4 C 5,6 C 5,0 C 97 % 1025,0 hPa 0,0 l/m 0 min 0 min 0 W/m 38,6 km/h (5 Bft) 95,74 %
29.12.2018 18:50 6,4 C 5,6 C 5,0 C 97 % 1025,0 hPa 0,0 l/m 0 min 0 min 0 W/m 19,3 km/h (3 Bft) 97,83 %
29.12.2018 18:52 6,4 C 5,6 C 5,0 C 97 % 1024,9 hPa 0,0 l/m 0 min 0 min 0 W/m 12,9 km/h (3 Bft) 97,87 %
29.12.2018 18:54 6,4 C 5,6 C 5,0 C 97 % 1025,0 hPa 0,0 l/m 0 min 0 min 0 W/m 19,3 km/h (3 Bft) 97,87 %
29.12.2018 18:56 6,4 C 5,6 C 5,0 C 97 % 1024,9 hPa 0,0 l/m 0 min 0 min 0 W/m 32,2 km/h (5 Bft) 97,87 %
29.12.2018 18:58 6,4 C 5,6 C 5,0 C 97 % 1024,9 hPa 0,0 l/m 0 min 0 min 0 W/m 25,7 km/h (4 Bft) 97,87 %
29.12.2018 19:00 6,4 C 5,6 C 5,0 C 97 % 1024,8 hPa 0,0 l/m 0 min 0 min 0 W/m 16,1 km/h (3 Bft) 97,87 %
29.12.2018 19:02 6,4 C 5,6 C 5,0 C 97 % 1024,9 hPa 0,0 l/m 0 min 0 min 0 W/m 16,1 km/h (3 Bft) 93,48 %
29.12.2018 19:04 6,4 C 6,1 C 5,0 C 97 % 1024,8 hPa 0,0 l/m 0 min 0 min 0 W/m 16,1 km/h (3 Bft) 100,00 %
29.12.2018 19:06 6,5 C 6,1 C 5,0 C 97 % 1024,8 hPa 0,0 l/m 0 min 0 min 0 W/m 29,0 km/h (5 Bft) 100,00 %
29.12.2018 19:08 6,5 C 6,1 C 5,0 C 97 % 1024,7 hPa 0,0 l/m 0 min 0 min 0 W/m 22,5 km/h (4 Bft) 95,74 %
29.12.2018 19:10 6,5 C 6,1 C 5,0 C 97 % 1024,7 hPa 0,0 l/m 0 min 0 min 0 W/m 16,1 km/h (3 Bft) 97,96 %
29.12.2018 19:12 6,6 C 6,1 C 5,0 C 97 % 1024,8 hPa 0,0 l/m 0 min 0 min 0 W/m 16,1 km/h (3 Bft) 95,74 %
29.12.2018 19:14 6,6 C 6,1 C 5,0 C 97 % 1024,8 hPa 0,0 l/m 0 min 0 min 0 W/m 16,1 km/h (3 Bft) 100,00 %
29.12.2018 19:16 6,6 C 6,1 C 5,6 C 97 % 1024,6 hPa 0,0 l/m 0 min 2 min 0 W/m 25,7 km/h (4 Bft) 97,87 %
29.12.2018 19:18 6,6 C 6,1 C 5,6 C 97 % 1024,7 hPa 0,0 l/m 0 min 0 min 0 W/m 16,1 km/h (3 Bft) 95,74 %
29.12.2018 19:20 6,6 C 6,1 C 5,6 C 97 % 1024,8 hPa 0,0 l/m 0 min 0 min 0 W/m 19,3 km/h (3 Bft) 100,00 %
29.12.2018 19:22 6,7 C 6,1 C 5,6 C 97 % 1024,7 hPa 0,0 l/m 0 min 0 min 0 W/m 22,5 km/h (4 Bft) 97,87 %
29.12.2018 19:24 6,7 C 6,1 C 5,6 C 97 % 1024,8 hPa 0,0 l/m 0 min 0 min 0 W/m 22,5 km/h (4 Bft) 100,00 %
29.12.2018 19:26 6,7 C 6,1 C 5,6 C 97 % 1024,7 hPa 0,0 l/m 0 min 0 min 0 W/m 9,7 km/h (2 Bft) 95,65 %
29.12.2018 19:28 6,7 C 6,1 C 5,6 C 97 % 1024,8 hPa 0,0 l/m 0 min 0 min 0 W/m 12,9 km/h (3 Bft) 97,87 %
29.12.2018 19:30 6,7 C 6,1 C 5,6 C 97 % 1024,8 hPa 0,0 l/m 0 min 0 min 0 W/m 12,9 km/h (3 Bft) 97,87 %
29.12.2018 19:32 6,7 C 6,1 C 5,6 C 97 % 1024,7 hPa 0,0 l/m 0 min 0 min 0 W/m 22,5 km/h (4 Bft) 95,74 %
29.12.2018 19:34 6,8 C 6,1 C 5,6 C 97 % 1024,8 hPa 0,0 l/m 0 min 0 min 0 W/m 16,1 km/h (3 Bft) 97,87 %
29.12.2018 19:36 6,8 C 6,1 C 5,6 C 97 % 1024,9 hPa 0,0 l/m 0 min 0 min 0 W/m 16,1 km/h (3 Bft) 98,28 %
29.12.2018 19:38 6,8 C 6,1 C 5,6 C 97 % 1024,9 hPa 0,0 l/m 0 min 0 min 0 W/m 19,3 km/h (3 Bft) 94,29 %
29.12.2018 19:40 6,8 C 6,1 C 5,6 C 97 % 1024,9 hPa 0,0 l/m 0 min 0 min 0 W/m 16,1 km/h (3 Bft) 93,62 %
29.12.2018 19:42 6,8 C 6,1 C 5,6 C 97 % 1024,9 hPa 0,0 l/m 0 min 0 min 0 W/m 16,1 km/h (3 Bft) 95,74 %
29.12.2018 19:44 6,8 C 6,1 C 5,6 C 97 % 1025,0 hPa 0,0 l/m 0 min 0 min 0 W/m 22,5 km/h (4 Bft) 93,62 %
29.12.2018 19:46 6,8 C 6,1 C 5,6 C 97 % 1024,9 hPa 0,0 l/m 0 min 0 min 0 W/m 16,1 km/h (3 Bft) 95,74 %
29.12.2018 19:48 6,8 C 6,1 C 5,6 C 97 % 1024,9 hPa 0,0 l/m 0 min 0 min 0 W/m 19,3 km/h (3 Bft) 95,74 %
29.12.2018 19:50 6,9 C 6,1 C 5,6 C 97 % 1025,0 hPa 0,0 l/m 0 min 0 min 0 W/m 9,7 km/h (2 Bft) 95,65 %
29.12.2018 19:52 6,9 C 6,1 C 5,6 C 97 % 1025,1 hPa 0,0 l/m 0 min 0 min 0 W/m 19,3 km/h (3 Bft) 95,74 %
29.12.2018 19:54 6,9 C 6,1 C 5,6 C 97 % 1025,2 hPa 0,0 l/m 0 min 0 min 0 W/m 19,3 km/h (3 Bft) 97,87 %
29.12.2018 19:56 6,9 C 6,1 C 5,6 C 97 % 1025,1 hPa 0,0 l/m 0 min 0 min 0 W/m 16,1 km/h (3 Bft) 93,62 %
29.12.2018 19:58 6,9 C 6,1 C 5,6 C 97 % 1025,0 hPa 0,0 l/m 0 min 0 min 0 W/m 12,9 km/h (3 Bft) 93,62 %
29.12.2018 20:00 6,9 C 6,1 C 5,6 C 97 % 1025,1 hPa 0,0 l/m 0 min 0 min 0 W/m 16,1 km/h (3 Bft) 89,13 %
29.12.2018 20:02 6,9 C 6,1 C 5,6 C 97 % 1025,2 hPa 0,0 l/m 0 min 0 min 0 W/m 22,5 km/h (4 Bft) 93,62 %
29.12.2018 20:04 7,0 C 6,7 C 5,6 C 97 % 1025,1 hPa 0,0 l/m 0 min 0 min 0 W/m 16,1 km/h (3 Bft) 97,87 %
29.12.2018 20:06 7,0 C 6,7 C 5,6 C 98 % 1025,1 hPa 0,0 l/m 0 min 0 min 0 W/m 9,7 km/h (2 Bft) 95,74 %
29.12.2018 20:08 7,0 C 6,7 C 5,6 C 98 % 1025,1 hPa 0,0 l/m 0 min 0 min 0 W/m 22,5 km/h (4 Bft) 97,87 %
29.12.2018 20:10 7,1 C 6,7 C 5,6 C 98 % 1025,0 hPa 0,0 l/m 0 min 0 min 0 W/m 29,0 km/h (5 Bft) 97,87 %
29.12.2018 20:12 7,1 C 6,7 C 5,6 C 98 % 1025,0 hPa 0,0 l/m 0 min 0 min 0 W/m 22,5 km/h (4 Bft) 95,65 %
29.12.2018 20:14 7,1 C 6,7 C 5,6 C 98 % 1025,1 hPa 0,0 l/m 0 min 0 min 0 W/m 12,9 km/h (3 Bft) 95,74 %
29.12.2018 20:16 7,1 C 6,7 C 5,6 C 98 % 1025,1 hPa 0,0 l/m 0 min 0 min 0 W/m 19,3 km/h (3 Bft) 97,87 %
29.12.2018 20:18 7,1 C 6,7 C 5,6 C 98 % 1025,1 hPa 0,0 l/m 0 min 0 min 0 W/m 19,3 km/h (3 Bft) 97,87 %
29.12.2018 20:20 7,1 C 6,7 C 5,6 C 98 % 1025,2 hPa 0,0 l/m 0 min 0 min 0 W/m 12,9 km/h (3 Bft) 100,00 %
29.12.2018 20:22 7,2 C 6,7 C 6,1 C 98 % 1025,1 hPa 0,0 l/m 0 min 0 min 0 W/m 12,9 km/h (3 Bft) 100,00 %
29.12.2018 20:24 7,2 C 6,7 C 6,1 C 98 % 1025,0 hPa 0,0 l/m 0 min 0 min 0 W/m 29,0 km/h (5 Bft) 100,00 %
29.12.2018 20:26 7,2 C 6,7 C 6,1 C 98 % 1025,0 hPa 0,0 l/m 0 min 0 min 0 W/m 22,5 km/h (4 Bft) 97,87 %
29.12.2018 20:28 7,2 C 6,7 C 6,1 C 98 % 1025,0 hPa 0,0 l/m 0 min 0 min 0 W/m 29,0 km/h (5 Bft) 100,00 %
29.12.2018 20:30 7,2 C 6,7 C 6,1 C 98 % 1025,1 hPa 0,0 l/m 0 min 0 min 0 W/m 16,1 km/h (3 Bft) 97,87 %
29.12.2018 20:32 7,3 C 6,7 C 6,1 C 98 % 1025,1 hPa 0,0 l/m 0 min 0 min 0 W/m 16,1 km/h (3 Bft) 100,00 %
29.12.2018 20:34 7,3 C 6,7 C 6,1 C 98 % 1025,2 hPa 0,0 l/m 0 min 0 min 0 W/m 29,0 km/h (5 Bft) 100,00 %
29.12.2018 20:36 7,3 C 6,7 C 6,1 C 98 % 1025,1 hPa 0,0 l/m 0 min 0 min 0 W/m 22,5 km/h (4 Bft) 100,00 %
29.12.2018 20:38 7,3 C 6,7 C 6,1 C 98 % 1025,2 hPa 0,0 l/m 0 min 0 min 0 W/m 19,3 km/h (3 Bft) 100,00 %
29.12.2018 20:40 7,4 C 6,7 C 6,1 C 98 % 1025,2 hPa 0,0 l/m 0 min 0 min 0 W/m 16,1 km/h (3 Bft) 97,87 %
29.12.2018 20:42 7,4 C 6,7 C 6,1 C 98 % 1025,2 hPa 0,0 l/m 0 min 0 min 0 W/m 9,7 km/h (2 Bft) 97,87 %
29.12.2018 20:44 7,4 C 6,7 C 6,7 C 98 % 1025,2 hPa 0,0 l/m 0 min 0 min 0 W/m 25,7 km/h (4 Bft) 100,00 %
29.12.2018 20:46 7,4 C 6,7 C 6,7 C 98 % 1025,1 hPa 0,0 l/m 0 min 0 min 0 W/m 16,1 km/h (3 Bft) 97,83 %
29.12.2018 20:48 7,5 C 6,7 C 6,7 C 98 % 1025,2 hPa 0,0 l/m 0 min 0 min 0 W/m 16,1 km/h (3 Bft) 100,00 %
29.12.2018 20:50 7,5 C 6,7 C 6,7 C 98 % 1025,1 hPa 0,0 l/m 0 min 0 min 0 W/m 12,9 km/h (3 Bft) 100,00 %
29.12.2018 20:52 7,6 C 7,2 C 6,7 C 98 % 1025,1 hPa 0,0 l/m 0 min 0 min 0 W/m 12,9 km/h (3 Bft) 98,00 %
29.12.2018 20:54 7,6 C 7,2 C 6,7 C 98 % 1025,0 hPa 0,0 l/m 0 min 0 min 0 W/m 22,5 km/h (4 Bft) 100,00 %
29.12.2018 20:56 7,6 C 7,2 C 6,7 C 98 % 1025,0 hPa 0,0 l/m 0 min 0 min 0 W/m 19,3 km/h (3 Bft) 100,00 %
29.12.2018 20:58 7,6 C 7,2 C 6,7 C 98 % 1025,0 hPa 0,0 l/m 0 min 0 min 0 W/m 19,3 km/h (3 Bft) 100,00 %
29.12.2018 21:00 7,7 C 7,2 C 6,7 C 98 % 1025,0 hPa 0,0 l/m 0 min 0 min 0 W/m 12,9 km/h (3 Bft) 100,00 %
29.12.2018 21:02 7,7 C 7,2 C 6,7 C 98 % 1025,0 hPa 0,0 l/m 0 min 0 min 0 W/m 12,9 km/h (3 Bft) 100,00 %
29.12.2018 21:04 7,7 C 7,2 C 6,7 C 98 % 1025,0 hPa 0,0 l/m 0 min 0 min 0 W/m 19,3 km/h (3 Bft) 100,00 %
29.12.2018 21:06 7,8 C 7,2 C 6,7 C 98 % 1024,9 hPa 0,0 l/m 0 min 0 min 0 W/m 16,1 km/h (3 Bft) 100,00 %
29.12.2018 21:08 7,8 C 7,2 C 6,7 C 98 % 1024,8 hPa 0,0 l/m 0 min 0 min 0 W/m 16,1 km/h (3 Bft) 100,00 %
29.12.2018 21:10 7,8 C 7,2 C 6,7 C 98 % 1024,9 hPa 0,0 l/m 0 min 0 min 0 W/m 16,1 km/h (3 Bft) 100,00 %
29.12.2018 21:12 7,8 C 7,2 C 6,7 C 98 % 1024,8 hPa 0,0 l/m 0 min 0 min 0 W/m 19,3 km/h (3 Bft) 97,87 %
29.12.2018 21:14 7,9 C 7,2 C 6,7 C 98 % 1024,8 hPa 0,0 l/m 0 min 0 min 0 W/m 22,5 km/h (4 Bft) 97,87 %
29.12.2018 21:16 7,9 C 7,2 C 6,7 C 98 % 1024,9 hPa 0,0 l/m 0 min 0 min 0 W/m 12,9 km/h (3 Bft) 95,74 %
29.12.2018 21:18 7,9 C 7,2 C 6,7 C 98 % 1024,9 hPa 0,0 l/m 0 min 0 min 0 W/m 16,1 km/h (3 Bft) 97,87 %
29.12.2018 21:20 8,0 C 7,2 C 6,7 C 98 % 1024,9 hPa 0,0 l/m 0 min 0 min 0 W/m 25,7 km/h (4 Bft) 97,87 %
29.12.2018 21:22 8,0 C 7,2 C 7,2 C 98 % 1024,9 hPa 0,0 l/m 0 min 0 min 0 W/m 25,7 km/h (4 Bft) 97,83 %
29.12.2018 21:24 8,0 C 7,2 C 7,2 C 98 % 1025,0 hPa 0,0 l/m 0 min 0 min 0 W/m 22,5 km/h (4 Bft) 97,87 %
29.12.2018 21:26 8,1 C 7,2 C 7,2 C 98 % 1025,0 hPa 0,0 l/m 0 min 0 min 0 W/m 22,5 km/h (4 Bft) 97,87 %
29.12.2018 21:28 8,1 C 7,2 C 7,2 C 98 % 1025,1 hPa 0,0 l/m 0 min 0 min 0 W/m 16,1 km/h (3 Bft) 95,74 %
29.12.2018 21:30 8,1 C 7,2 C 7,2 C 98 % 1025,0 hPa 0,0 l/m 0 min 0 min 0 W/m 16,1 km/h (3 Bft) 97,87 %
29.12.2018 21:32 8,1 C 7,2 C 7,2 C 98 % 1025,0 hPa 0,0 l/m 0 min 0 min 0 W/m 19,3 km/h (3 Bft) 97,83 %
29.12.2018 21:34 8,1 C 7,2 C 7,2 C 98 % 1024,9 hPa 0,0 l/m 0 min 0 min 0 W/m 19,3 km/h (3 Bft) 97,87 %
29.12.2018 21:36 8,2 C 7,2 C 7,2 C 98 % 1025,1 hPa 0,0 l/m 0 min 0 min 0 W/m 19,3 km/h (3 Bft) 97,87 %
29.12.2018 21:38 8,2 C 7,2 C 7,2 C 98 % 1025,0 hPa 0,0 l/m 0 min 0 min 0 W/m 16,1 km/h (3 Bft) 97,87 %
29.12.2018 21:40 8,2 C 7,2 C 7,2 C 98 % 1025,1 hPa 0,0 l/m 0 min 0 min 0 W/m 16,1 km/h (3 Bft) 97,87 %
29.12.2018 21:42 8,2 C 7,2 C 7,2 C 98 % 1025,2 hPa 0,0 l/m 0 min 0 min 0 W/m 12,9 km/h (3 Bft) 97,87 %
29.12.2018 21:44 8,2 C 7,2 C 7,2 C 98 % 1025,2 hPa 0,0 l/m 0 min 0 min 0 W/m 16,1 km/h (3 Bft) 97,83 %
29.12.2018 21:46 8,2 C 7,2 C 7,2 C 98 % 1025,2 hPa 0,0 l/m 0 min 0 min 0 W/m 22,5 km/h (4 Bft) 97,87 %
29.12.2018 21:48 8,2 C 7,2 C 7,2 C 98 % 1025,2 hPa 0,0 l/m 0 min 0 min 0 W/m 29,0 km/h (5 Bft) 97,87 %
29.12.2018 21:50 8,2 C 7,8 C 7,2 C 97 % 1025,3 hPa 0,0 l/m 0 min 0 min 0 W/m 22,5 km/h (4 Bft) 93,62 %
29.12.2018 21:52 8,2 C 7,2 C 7,2 C 97 % 1025,2 hPa 0,0 l/m 0 min 0 min 0 W/m 45,1 km/h (6 Bft) 93,62 %
29.12.2018 21:54 8,2 C 7,8 C 7,2 C 97 % 1025,2 hPa 0,0 l/m 0 min 0 min 0 W/m 25,7 km/h (4 Bft) 95,74 %
29.12.2018 21:56 8,2 C 7,2 C 7,2 C 97 % 1025,2 hPa 0,0 l/m 0 min 0 min 0 W/m 25,7 km/h (4 Bft) 95,65 %
29.12.2018 21:58 8,2 C 7,2 C 7,2 C 97 % 1025,2 hPa 0,0 l/m 0 min 0 min 0 W/m 19,3 km/h (3 Bft) 97,87 %
29.12.2018 22:00 8,2 C 7,2 C 7,2 C 97 % 1025,3 hPa 0,0 l/m 0 min 0 min 0 W/m 22,5 km/h (4 Bft) 97,87 %
29.12.2018 22:02 8,2 C 7,2 C 7,2 C 97 % 1025,3 hPa 0,0 l/m 0 min 0 min 0 W/m 22,5 km/h (4 Bft) 97,87 %
29.12.2018 22:04 8,2 C 7,2 C 7,2 C 97 % 1025,3 hPa 0,0 l/m 0 min 0 min 0 W/m 19,3 km/h (3 Bft) 93,62 %
29.12.2018 22:06 8,2 C 7,2 C 7,2 C 97 % 1025,3 hPa 0,0 l/m 0 min 0 min 0 W/m 32,2 km/h (5 Bft) 95,74 %
29.12.2018 22:08 8,2 C 7,2 C 7,2 C 97 % 1025,4 hPa 0,0 l/m 0 min 0 min 0 W/m 19,3 km/h (3 Bft) 95,65 %
29.12.2018 22:10 8,2 C 7,2 C 7,2 C 97 % 1025,3 hPa 0,0 l/m 0 min 0 min 0 W/m 32,2 km/h (5 Bft) 91,49 %
29.12.2018 22:12 8,2 C 7,2 C 7,2 C 97 % 1025,3 hPa 0,0 l/m 0 min 0 min 0 W/m 19,3 km/h (3 Bft) 95,74 %
29.12.2018 22:14 8,2 C 7,2 C 7,2 C 97 % 1025,4 hPa 0,0 l/m 0 min 0 min 0 W/m 35,4 km/h (5 Bft) 93,62 %
29.12.2018 22:16 8,2 C 7,2 C 7,2 C 97 % 1025,4 hPa 0,0 l/m 0 min 0 min 0 W/m 19,3 km/h (3 Bft) 95,74 %
29.12.2018 22:18 8,2 C 7,2 C 7,2 C 97 % 1025,3 hPa 0,0 l/m 0 min 0 min 0 W/m 16,1 km/h (3 Bft) 95,74 %
29.12.2018 22:20 8,2 C 7,2 C 7,2 C 97 % 1025,4 hPa 0,0 l/m 0 min 0 min 0 W/m 19,3 km/h (3 Bft) 95,65 %
29.12.2018 22:22 8,2 C 7,2 C 7,2 C 96 % 1025,4 hPa 0,0 l/m 0 min 0 min 0 W/m 22,5 km/h (4 Bft) 93,62 %
29.12.2018 22:24 8,2 C 7,2 C 7,2 C 96 % 1025,4 hPa 0,0 l/m 0 min 0 min 0 W/m 25,7 km/h (4 Bft) 93,62 %
29.12.2018 22:26 8,2 C 7,2 C 6,7 C 96 % 1025,3 hPa 0,0 l/m 0 min 0 min 0 W/m 16,1 km/h (3 Bft) 93,62 %
29.12.2018 22:28 8,2 C 7,2 C 7,2 C 96 % 1025,3 hPa 0,0 l/m 0 min 0 min 0 W/m 25,7 km/h (4 Bft) 95,74 %
29.12.2018 22:30 8,1 C 7,2 C 6,7 C 96 % 1025,2 hPa 0,0 l/m 0 min 0 min 0 W/m 25,7 km/h (4 Bft) 93,48 %
29.12.2018 22:32 8,1 C 7,2 C 7,2 C 96 % 1025,2 hPa 0,0 l/m 0 min 0 min 0 W/m 25,7 km/h (4 Bft) 95,74 %
29.12.2018 22:34 8,1 C 7,2 C 7,2 C 96 % 1025,3 hPa 0,0 l/m 0 min 0 min 0 W/m 22,5 km/h (4 Bft) 95,74 %
29.12.2018 22:36 8,1 C 7,2 C 6,7 C 95 % 1025,3 hPa 0,0 l/m 0 min 0 min 0 W/m 22,5 km/h (4 Bft) 93,62 %
29.12.2018 22:38 8,1 C 7,2 C 6,7 C 95 % 1025,4 hPa 0,0 l/m 0 min 0 min 0 W/m 25,7 km/h (4 Bft) 95,74 %
29.12.2018 22:40 8,1 C 7,2 C 7,2 C 95 % 1025,4 hPa 0,0 l/m 0 min 0 min 0 W/m 25,7 km/h (4 Bft) 95,74 %
29.12.2018 22:42 8,1 C 7,8 C 7,2 C 95 % 1025,5 hPa 0,0 l/m 0 min 0 min 0 W/m 25,7 km/h (4 Bft) 93,48 %
29.12.2018 22:44 8,1 C 7,8 C 6,7 C 94 % 1025,5 hPa 0,0 l/m 0 min 0 min 0 W/m 32,2 km/h (5 Bft) 95,74 %
29.12.2018 22:46 8,0 C 7,2 C 6,7 C 94 % 1025,6 hPa 0,0 l/m 0 min 0 min 0 W/m 22,5 km/h (4 Bft) 95,74 %
29.12.2018 22:48 8,0 C 7,2 C 6,7 C 94 % 1025,6 hPa 0,0 l/m 0 min 0 min 0 W/m 32,2 km/h (5 Bft) 93,62 %
29.12.2018 22:50 8,0 C 7,2 C 6,7 C 93 % 1025,6 hPa 0,0 l/m 0 min 0 min 0 W/m 22,5 km/h (4 Bft) 95,74 %
29.12.2018 22:52 7,9 C 7,2 C 6,7 C 93 % 1025,6 hPa 0,0 l/m 0 min 0 min 0 W/m 19,3 km/h (3 Bft) 97,87 %
29.12.2018 22:54 7,9 C 7,2 C 6,7 C 93 % 1025,5 hPa 0,0 l/m 0 min 0 min 0 W/m 16,1 km/h (3 Bft) 100,00 %
29.12.2018 22:56 7,9 C 7,2 C 6,7 C 92 % 1025,6 hPa 0,0 l/m 0 min 0 min 0 W/m 29,0 km/h (5 Bft) 95,74 %
29.12.2018 22:58 7,9 C 7,2 C 6,7 C 92 % 1025,6 hPa 0,0 l/m 0 min 0 min 0 W/m 22,5 km/h (4 Bft) 95,74 %
29.12.2018 23:00 7,9 C 7,2 C 6,7 C 92 % 1025,6 hPa 0,0 l/m 0 min 0 min 0 W/m 19,3 km/h (3 Bft) 97,87 %
29.12.2018 23:02 7,9 C 7,2 C 6,7 C 92 % 1025,7 hPa 0,0 l/m 0 min 0 min 0 W/m 16,1 km/h (3 Bft) 100,00 %
29.12.2018 23:04 7,9 C 7,2 C 6,7 C 92 % 1025,7 hPa 0,0 l/m 0 min 0 min 0 W/m 12,9 km/h (3 Bft) 100,00 %
29.12.2018 23:06 7,9 C 7,8 C 6,7 C 91 % 1025,7 hPa 0,0 l/m 0 min 0 min 0 W/m 29,0 km/h (5 Bft) 97,83 %
29.12.2018 23:08 7,9 C 7,8 C 6,7 C 91 % 1025,7 hPa 0,0 l/m 0 min 0 min 0 W/m 19,3 km/h (3 Bft) 100,00 %
29.12.2018 23:10 7,9 C 7,8 C 6,7 C 91 % 1025,7 hPa 0,0 l/m 0 min 0 min 0 W/m 16,1 km/h (3 Bft) 100,00 %
29.12.2018 23:12 8,0 C 7,8 C 6,7 C 91 % 1025,8 hPa 0,0 l/m 0 min 0 min 0 W/m 32,2 km/h (5 Bft) 97,87 %
29.12.2018 23:14 8,0 C 7,8 C 6,7 C 91 % 1025,8 hPa 0,0 l/m 0 min 0 min 0 W/m 32,2 km/h (5 Bft) 100,00 %
29.12.2018 23:16 8,0 C 7,8 C 6,7 C 91 % 1025,8 hPa 0,0 l/m 0 min 0 min 0 W/m 35,4 km/h (5 Bft) 97,87 %
29.12.2018 23:18 8,1 C 7,8 C 6,7 C 91 % 1026,0 hPa 0,0 l/m 0 min 0 min 0 W/m 22,5 km/h (4 Bft) 100,00 %
29.12.2018 23:20 8,1 C 7,8 C 6,7 C 90 % 1025,8 hPa 0,0 l/m 0 min 0 min 0 W/m 29,0 km/h (5 Bft) 97,87 %
29.12.2018 23:22 8,1 C 7,8 C 6,7 C 90 % 1026,0 hPa 0,0 l/m 0 min 0 min 0 W/m 25,7 km/h (4 Bft) 95,74 %
29.12.2018 23:24 8,1 C 7,8 C 6,7 C 89 % 1025,9 hPa 0,0 l/m 0 min 0 min 0 W/m 25,7 km/h (4 Bft) 100,00 %
29.12.2018 23:26 8,1 C 7,8 C 6,7 C 89 % 1026,0 hPa 0,0 l/m 0 min 0 min 0 W/m 29,0 km/h (5 Bft) 95,74 %
29.12.2018 23:28 8,1 C 7,8 C 6,7 C 89 % 1026,0 hPa 0,0 l/m 0 min 0 min 0 W/m 22,5 km/h (4 Bft) 100,00 %
29.12.2018 23:30 8,1 C 7,8 C 6,7 C 89 % 1026,0 hPa 0,0 l/m 0 min 0 min 0 W/m 16,1 km/h (3 Bft) 100,00 %
29.12.2018 23:32 8,1 C 7,8 C 6,7 C 89 % 1026,2 hPa 0,0 l/m 0 min 0 min 0 W/m 29,0 km/h (5 Bft) 97,87 %
29.12.2018 23:34 8,1 C 7,2 C 6,7 C 89 % 1026,1 hPa 0,0 l/m 0 min 0 min 0 W/m 32,2 km/h (5 Bft) 100,00 %
29.12.2018 23:36 8,1 C 7,2 C 6,7 C 89 % 1026,2 hPa 0,0 l/m 0 min 0 min 0 W/m 25,7 km/h (4 Bft) 100,00 %
29.12.2018 23:38 8,0 C 7,8 C 6,7 C 89 % 1026,2 hPa 0,0 l/m 0 min 0 min 0 W/m 22,5 km/h (4 Bft) 100,00 %
29.12.2018 23:40 8,0 C 7,2 C 6,7 C 89 % 1026,1 hPa 0,0 l/m 0 min 0 min 0 W/m 22,5 km/h (4 Bft) 97,87 %
29.12.2018 23:42 8,0 C 7,2 C 6,7 C 88 % 1026,1 hPa 0,0 l/m 0 min 0 min 0 W/m 29,0 km/h (5 Bft) 100,00 %
29.12.2018 23:44 8,0 C 7,2 C 6,7 C 88 % 1026,2 hPa 0,0 l/m 0 min 0 min 0 W/m 25,7 km/h (4 Bft) 100,00 %
29.12.2018 23:46 8,0 C 7,8 C 6,7 C 88 % 1026,3 hPa 0,0 l/m 0 min 0 min 0 W/m 25,7 km/h (4 Bft) 100,00 %
29.12.2018 23:48 8,0 C 7,8 C 6,7 C 88 % 1026,4 hPa 0,0 l/m 0 min 0 min 0 W/m 22,5 km/h (4 Bft) 100,00 %
29.12.2018 23:50 8,0 C 7,2 C 6,7 C 88 % 1026,4 hPa 0,0 l/m 0 min 0 min 0 W/m 19,3 km/h (3 Bft) 100,00 %
29.12.2018 23:52 7,9 C 7,2 C 6,7 C 87 % 1026,4 hPa 0,0 l/m 0 min 0 min 0 W/m 25,7 km/h (4 Bft) 100,00 %
29.12.2018 23:54 7,9 C 7,2 C 6,7 C 87 % 1026,4 hPa 0,0 l/m 0 min 0 min 0 W/m 25,7 km/h (4 Bft) 100,00 %
29.12.2018 23:56 7,9 C 7,2 C 6,7 C 87 % 1026,4 hPa 0,0 l/m 0 min 0 min 0 W/m 25,7 km/h (4 Bft) 100,00 %
29.12.2018 23:58 7,9 C 7,2 C 6,7 C 87 % 1026,5 hPa 0,0 l/m 0 min 0 min 0 W/m 35,4 km/h (5 Bft) 100,00 %
_ Min-Zeit 00:18 00:00 00:00 23:52 19:16 - - - - 00:00 01:54
Minimum _ 2,6 C 1,7 C 1,7 C 87 % 1024,6 hPa - - - - 0,0 km/h (0 Bft) 63,83 %
_ Max-Zeit 21:36 21:50 21:22 20:06 08:36 15:24 00:00 06:08 13:04 21:52 00:14
Maximum _ 8,2 C 7,8 C 7,2 C 98 % 1030,5 hPa 0,2 l/m 0 min 4 min 126 W/m 45,1 km/h
NW (6 Bft)
100,00 %
Durchschnitt _ 5,2 C 4,7 C 4,1 C 95 % 1028,0 hPa #1,0 l/m #0 min. #58 min. 38 W/m 12,5 km/h (3 Bft) 96,01 %
© 2018 W. Hausmann